PWSweather.com
Personal Weather Stations
Station Observations
KOHREFORM1
Reform, Ohio, Newark, OH 43055

Reform, OhioNewark, OH 43055

Lat: 40.1502, Lon: -82.2417

Elevation: 1043

Station Type: Davis Vantage Pro 2 Plus

randysweatheronthehill.com

High Low Average
Temperature 58.7°F14.8°C 48.6°F9.2°C 53.8°F12.1°C
Dew Point 54.8°F12.7°C 42.4°F5.8°C 49.0°F9.4°C
Winds 12.0 mph 19.3 kmh Calm Calm 2.0 mph SSW3.2 kmh SSW
Wind Gusts 18.0 mph29.0 kmh -- 8.0 mph12.9 kmh
Humidity 96% 71% 85%
Pressure 30.15 in1021.0 mb 29.82 in1009.8 mb -
Precipitation 0.72 in18.3 mm - -
Hour Temp Dew Point Humidity Winds Wind Gusts Pressure Precip Precip Rate Daily Precip Total
12:01 AM 48.7°F9.3°C 42.5°F5.8°C 79% 3.0 mph S4.8 kmh S 9.0 mph14.5 kmh 30.11 in1019.6 mb 0.00 in0.0 mm 0.00 in0.0 mm 0.00 in0.0 mm
12:03 AM 48.6°F9.2°C 42.7°F5.9°C 80% 3.0 mph S4.8 kmh S 9.0 mph14.5 kmh 30.11 in1019.6 mb 0.00 in0.0 mm 0.00 in0.0 mm 0.00 in0.0 mm
12:05 AM 48.6°F9.2°C 42.7°F5.9°C 80% 1.0 mph W1.6 kmh W 9.0 mph14.5 kmh 30.11 in1019.6 mb 0.00 in0.0 mm 0.00 in0.0 mm 0.00 in0.0 mm
12:07 AM 48.6°F9.2°C 42.4°F5.8°C 79% 1.0 mph SSW1.6 kmh SSW 9.0 mph14.5 kmh 30.11 in1019.6 mb 0.00 in0.0 mm 0.00 in0.0 mm 0.00 in0.0 mm
12:09 AM 48.6°F9.2°C 42.4°F5.8°C 79% 3.0 mph SW4.8 kmh SW 9.0 mph14.5 kmh 30.12 in1020.0 mb 0.00 in0.0 mm 0.00 in0.0 mm 0.00 in0.0 mm
12:11 AM 48.6°F9.2°C 42.7°F5.9°C 80% 2.0 mph S3.2 kmh S 9.0 mph14.5 kmh 30.12 in1020.0 mb 0.00 in0.0 mm 0.00 in0.0 mm 0.00 in0.0 mm
12:13 AM 48.6°F9.2°C 42.7°F5.9°C 80% 1.0 mph SSW1.6 kmh SSW 5.0 mph8.0 kmh 30.12 in1020.0 mb 0.00 in0.0 mm 0.00 in0.0 mm 0.00 in0.0 mm
12:15 AM 48.7°F9.3°C 42.8°F6.0°C 80% Calm Calm 6.0 mph9.7 kmh 30.12 in1020.0 mb 0.00 in0.0 mm 0.00 in0.0 mm 0.00 in0.0 mm
12:17 AM 48.7°F9.3°C 42.8°F6.0°C 80% 1.0 mph SW1.6 kmh SW 6.0 mph9.7 kmh 30.11 in1019.6 mb 0.00 in0.0 mm 0.00 in0.0 mm 0.00 in0.0 mm
12:19 AM 48.7°F9.3°C 42.8°F6.0°C 80% 2.0 mph S3.2 kmh S 6.0 mph9.7 kmh 30.11 in1019.6 mb 0.00 in0.0 mm 0.00 in0.0 mm 0.00 in0.0 mm
12:21 AM 48.8°F9.3°C 42.9°F6.1°C 80% 1.0 mph S1.6 kmh S 6.0 mph9.7 kmh 30.11 in1019.6 mb 0.00 in0.0 mm 0.00 in0.0 mm 0.00 in0.0 mm
12:23 AM 48.7°F9.3°C 42.8°F6.0°C 80% 1.0 mph S1.6 kmh S 7.0 mph11.3 kmh 30.11 in1019.6 mb 0.00 in0.0 mm 0.00 in0.0 mm 0.00 in0.0 mm
12:25 AM 48.7°F9.3°C 42.8°F6.0°C 80% Calm Calm 7.0 mph11.3 kmh 30.11 in1019.6 mb 0.00 in0.0 mm 0.00 in0.0 mm 0.00 in0.0 mm
12:27 AM 48.7°F9.3°C 42.8°F6.0°C 80% 3.0 mph SSE4.8 kmh SSE 7.0 mph11.3 kmh 30.11 in1019.6 mb 0.00 in0.0 mm 0.00 in0.0 mm 0.00 in0.0 mm
12:29 AM 48.8°F9.3°C 42.6°F5.9°C 79% 2.0 mph S3.2 kmh S 7.0 mph11.3 kmh 30.11 in1019.6 mb 0.00 in0.0 mm 0.00 in0.0 mm 0.00 in0.0 mm
12:31 AM 48.8°F9.3°C 42.6°F5.9°C 79% 1.0 mph S1.6 kmh S 7.0 mph11.3 kmh 30.11 in1019.6 mb 0.00 in0.0 mm 0.00 in0.0 mm 0.00 in0.0 mm
12:33 AM 48.7°F9.3°C 42.5°F5.8°C 79% 2.0 mph S3.2 kmh S 7.0 mph11.3 kmh 30.11 in1019.6 mb 0.00 in0.0 mm 0.00 in0.0 mm 0.00 in0.0 mm
12:35 AM 48.7°F9.3°C 42.8°F6.0°C 80% 3.0 mph WNW4.8 kmh WNW 9.0 mph14.5 kmh 30.11 in1019.6 mb 0.00 in0.0 mm 0.00 in0.0 mm 0.00 in0.0 mm
12:37 AM 48.8°F9.3°C 42.9°F6.1°C 80% 1.0 mph SW1.6 kmh SW 9.0 mph14.5 kmh 30.11 in1019.6 mb 0.00 in0.0 mm 0.00 in0.0 mm 0.00 in0.0 mm
12:39 AM 48.8°F9.3°C 42.9°F6.1°C 80% 5.0 mph SSE8.0 kmh SSE 9.0 mph14.5 kmh 30.11 in1019.6 mb 0.00 in0.0 mm 0.00 in0.0 mm 0.00 in0.0 mm
12:41 AM 48.8°F9.3°C 42.9°F6.1°C 80% 2.0 mph S3.2 kmh S 9.0 mph14.5 kmh 30.11 in1019.6 mb 0.00 in0.0 mm 0.00 in0.0 mm 0.00 in0.0 mm
12:43 AM 48.9°F9.4°C 43.0°F6.1°C 80% 1.0 mph S1.6 kmh S 9.0 mph14.5 kmh 30.11 in1019.6 mb 0.00 in0.0 mm 0.00 in0.0 mm 0.00 in0.0 mm
12:45 AM 49.0°F9.4°C 42.8°F6.0°C 79% 2.0 mph S3.2 kmh S 9.0 mph14.5 kmh 30.11 in1019.6 mb 0.00 in0.0 mm 0.00 in0.0 mm 0.00 in0.0 mm
12:47 AM 49.0°F9.4°C 42.8°F6.0°C 79% 2.0 mph S3.2 kmh S 9.0 mph14.5 kmh 30.11 in1019.6 mb 0.00 in0.0 mm 0.00 in0.0 mm 0.00 in0.0 mm
12:49 AM 49.0°F9.4°C 42.8°F6.0°C 79% Calm Calm 9.0 mph14.5 kmh 30.11 in1019.6 mb 0.00 in0.0 mm 0.00 in0.0 mm 0.00 in0.0 mm
12:51 AM 49.0°F9.4°C 42.8°F6.0°C 79% 2.0 mph ENE3.2 kmh ENE 5.0 mph8.0 kmh 30.11 in1019.6 mb 0.00 in0.0 mm 0.00 in0.0 mm 0.00 in0.0 mm
12:53 AM 49.0°F9.4°C 42.8°F6.0°C 79% Calm Calm 5.0 mph8.0 kmh 30.11 in1019.6 mb 0.00 in0.0 mm 0.00 in0.0 mm 0.00 in0.0 mm
12:55 AM 49.0°F9.4°C 42.8°F6.0°C 79% 2.0 mph SW3.2 kmh SW 5.0 mph8.0 kmh 30.11 in1019.6 mb 0.00 in0.0 mm 0.00 in0.0 mm 0.00 in0.0 mm
12:57 AM 48.9°F9.4°C 42.7°F5.9°C 79% 5.0 mph SSE8.0 kmh SSE 6.0 mph9.7 kmh 30.11 in1019.6 mb 0.00 in0.0 mm 0.00 in0.0 mm 0.00 in0.0 mm
12:59 AM 49.0°F9.4°C 42.8°F6.0°C 79% 5.0 mph SE8.0 kmh SE 6.0 mph9.7 kmh 30.11 in1019.6 mb 0.00 in0.0 mm 0.00 in0.0 mm 0.00 in0.0 mm
01:01 AM 49.1°F9.5°C 42.9°F6.1°C 79% 3.0 mph E4.8 kmh E 7.0 mph11.3 kmh 30.11 in1019.6 mb 0.00 in0.0 mm 0.00 in0.0 mm 0.00 in0.0 mm
01:03 AM 49.2°F9.6°C 43.0°F6.1°C 79% 2.0 mph S3.2 kmh S 7.0 mph11.3 kmh 30.10 in1019.3 mb 0.00 in0.0 mm 0.00 in0.0 mm 0.00 in0.0 mm
01:05 AM 49.2°F9.6°C 43.0°F6.1°C 79% 2.0 mph S3.2 kmh S 7.0 mph11.3 kmh 30.11 in1019.6 mb 0.00 in0.0 mm 0.00 in0.0 mm 0.00 in0.0 mm
01:07 AM 49.3°F9.6°C 43.1°F6.2°C 79% Calm Calm 7.0 mph11.3 kmh 30.10 in1019.3 mb 0.00 in0.0 mm 0.00 in0.0 mm 0.00 in0.0 mm
01:09 AM 49.3°F9.6°C 43.1°F6.2°C 79% 1.0 mph S1.6 kmh S 7.0 mph11.3 kmh 30.10 in1019.3 mb 0.00 in0.0 mm 0.00 in0.0 mm 0.00 in0.0 mm
01:11 AM 49.4°F9.7°C 43.2°F6.2°C 79% 1.0 mph SSW1.6 kmh SSW 7.0 mph11.3 kmh 30.10 in1019.3 mb 0.00 in0.0 mm 0.00 in0.0 mm 0.00 in0.0 mm
01:13 AM 49.4°F9.7°C 43.2°F6.2°C 79% Calm Calm 7.0 mph11.3 kmh 30.10 in1019.3 mb 0.00 in0.0 mm 0.00 in0.0 mm 0.00 in0.0 mm
01:15 AM 49.4°F9.7°C 43.2°F6.2°C 79% 1.0 mph WSW1.6 kmh WSW 7.0 mph11.3 kmh 30.10 in1019.3 mb 0.00 in0.0 mm 0.00 in0.0 mm 0.00 in0.0 mm
01:17 AM 49.5°F9.7°C 43.3°F6.3°C 79% 4.0 mph SSW6.4 kmh SSW 7.0 mph11.3 kmh 30.10 in1019.3 mb 0.00 in0.0 mm 0.00 in0.0 mm 0.00 in0.0 mm
01:19 AM 49.5°F9.7°C 43.3°F6.3°C 79% 1.0 mph SW1.6 kmh SW 7.0 mph11.3 kmh 30.10 in1019.3 mb 0.00 in0.0 mm 0.00 in0.0 mm 0.00 in0.0 mm
01:21 AM 49.6°F9.8°C 43.4°F6.3°C 79% 1.0 mph SW1.6 kmh SW 7.0 mph11.3 kmh 30.10 in1019.3 mb 0.00 in0.0 mm 0.00 in0.0 mm 0.00 in0.0 mm
01:23 AM 49.7°F9.8°C 43.1°F6.2°C 78% 2.0 mph S3.2 kmh S 7.0 mph11.3 kmh 30.10 in1019.3 mb 0.00 in0.0 mm 0.00 in0.0 mm 0.00 in0.0 mm
01:25 AM 49.7°F9.8°C 43.5°F6.4°C 79% 1.0 mph SSW1.6 kmh SSW 7.0 mph11.3 kmh 30.10 in1019.3 mb 0.00 in0.0 mm 0.00 in0.0 mm 0.00 in0.0 mm
01:27 AM 49.7°F9.8°C 43.5°F6.4°C 79% 2.0 mph S3.2 kmh S 7.0 mph11.3 kmh 30.10 in1019.3 mb 0.00 in0.0 mm 0.00 in0.0 mm 0.00 in0.0 mm
01:29 AM 49.7°F9.8°C 43.5°F6.4°C 79% 2.0 mph SW3.2 kmh SW 7.0 mph11.3 kmh 30.10 in1019.3 mb 0.00 in0.0 mm 0.00 in0.0 mm 0.00 in0.0 mm
01:31 AM 49.8°F9.9°C 43.6°F6.4°C 79% 1.0 mph S1.6 kmh S 7.0 mph11.3 kmh 30.10 in1019.3 mb 0.00 in0.0 mm 0.00 in0.0 mm 0.00 in0.0 mm
01:33 AM 49.8°F9.9°C 43.2°F6.2°C 78% 2.0 mph SW3.2 kmh SW 7.0 mph11.3 kmh 30.10 in1019.3 mb 0.00 in0.0 mm 0.00 in0.0 mm 0.00 in0.0 mm
01:35 AM 49.8°F9.9°C 43.2°F6.2°C 78% Calm Calm 7.0 mph11.3 kmh 30.10 in1019.3 mb 0.00 in0.0 mm 0.00 in0.0 mm 0.00 in0.0 mm
01:37 AM 49.8°F9.9°C 43.2°F6.2°C 78% Calm Calm 7.0 mph11.3 kmh 30.10 in1019.3 mb 0.00 in0.0 mm 0.00 in0.0 mm 0.00 in0.0 mm
01:39 AM 49.7°F9.8°C 43.1°F6.2°C 78% Calm Calm 6.0 mph9.7 kmh 30.10 in1019.3 mb 0.00 in0.0 mm 0.00 in0.0 mm 0.00 in0.0 mm
01:41 AM 49.7°F9.8°C 43.5°F6.4°C 79% Calm Calm 6.0 mph9.7 kmh 30.10 in1019.3 mb 0.00 in0.0 mm 0.00 in0.0 mm 0.00 in0.0 mm
01:43 AM 49.8°F9.9°C 43.2°F6.2°C 78% 1.0 mph SW1.6 kmh SW 6.0 mph9.7 kmh 30.10 in1019.3 mb 0.00 in0.0 mm 0.00 in0.0 mm 0.00 in0.0 mm
01:45 AM 49.8°F9.9°C 43.2°F6.2°C 78% 3.0 mph SSW4.8 kmh SSW 6.0 mph9.7 kmh 30.11 in1019.6 mb 0.00 in0.0 mm 0.00 in0.0 mm 0.00 in0.0 mm
01:47 AM 49.8°F9.9°C 43.2°F6.2°C 78% 3.0 mph S4.8 kmh S 6.0 mph9.7 kmh 30.11 in1019.6 mb 0.00 in0.0 mm 0.00 in0.0 mm 0.00 in0.0 mm
01:49 AM 49.9°F9.9°C 43.3°F6.3°C 78% 1.0 mph S1.6 kmh S 5.0 mph8.0 kmh 30.10 in1019.3 mb 0.00 in0.0 mm 0.00 in0.0 mm 0.00 in0.0 mm
01:51 AM 50.0°F10.0°C 43.4°F6.3°C 78% 1.0 mph S1.6 kmh S 5.0 mph8.0 kmh 30.11 in1019.6 mb 0.00 in0.0 mm 0.00 in0.0 mm 0.00 in0.0 mm
01:53 AM 50.0°F10.0°C 43.4°F6.3°C 78% Calm Calm 5.0 mph8.0 kmh 30.11 in1019.6 mb 0.00 in0.0 mm 0.00 in0.0 mm 0.00 in0.0 mm
01:55 AM 50.0°F10.0°C 43.4°F6.3°C 78% 2.0 mph SSW3.2 kmh SSW 5.0 mph8.0 kmh 30.11 in1019.6 mb 0.00 in0.0 mm 0.00 in0.0 mm 0.00 in0.0 mm
01:57 AM 50.0°F10.0°C 43.4°F6.3°C 78% 1.0 mph S1.6 kmh S 5.0 mph8.0 kmh 30.11 in1019.6 mb 0.00 in0.0 mm 0.00 in0.0 mm 0.00 in0.0 mm
01:59 AM 50.0°F10.0°C 43.4°F6.3°C 78% 2.0 mph S3.2 kmh S 5.0 mph8.0 kmh 30.11 in1019.6 mb 0.00 in0.0 mm 0.00 in0.0 mm 0.00 in0.0 mm
02:01 AM 50.0°F10.0°C 43.4°F6.3°C 78% 3.0 mph S4.8 kmh S 5.0 mph8.0 kmh 30.11 in1019.6 mb 0.00 in0.0 mm 0.00 in0.0 mm 0.00 in0.0 mm
02:03 AM 50.1°F10.1°C 43.5°F6.4°C 78% 2.0 mph S3.2 kmh S 5.0 mph8.0 kmh 30.11 in1019.6 mb 0.00 in0.0 mm 0.00 in0.0 mm 0.00 in0.0 mm
02:05 AM 50.0°F10.0°C 43.4°F6.3°C 78% 1.0 mph SSE1.6 kmh SSE 6.0 mph9.7 kmh 30.11 in1019.6 mb 0.00 in0.0 mm 0.00 in0.0 mm 0.00 in0.0 mm
02:07 AM 50.0°F10.0°C 43.4°F6.3°C 78% 1.0 mph S1.6 kmh S 6.0 mph9.7 kmh 30.11 in1019.6 mb 0.00 in0.0 mm 0.00 in0.0 mm 0.00 in0.0 mm
02:09 AM 50.0°F10.0°C 43.4°F6.3°C 78% 1.0 mph S1.6 kmh S 6.0 mph9.7 kmh 30.11 in1019.6 mb 0.00 in0.0 mm 0.00 in0.0 mm 0.00 in0.0 mm
02:11 AM 50.0°F10.0°C 43.4°F6.3°C 78% 1.0 mph S1.6 kmh S 6.0 mph9.7 kmh 30.11 in1019.6 mb 0.00 in0.0 mm 0.00 in0.0 mm 0.00 in0.0 mm
02:13 AM 50.0°F10.0°C 43.4°F6.3°C 78% 2.0 mph SE3.2 kmh SE 6.0 mph9.7 kmh 30.11 in1019.6 mb 0.00 in0.0 mm 0.00 in0.0 mm 0.00 in0.0 mm
02:15 AM 50.0°F10.0°C 43.4°F6.3°C 78% Calm Calm 7.0 mph11.3 kmh 30.11 in1019.6 mb 0.00 in0.0 mm 0.00 in0.0 mm 0.00 in0.0 mm
02:17 AM 50.0°F10.0°C 43.4°F6.3°C 78% 1.0 mph SSE1.6 kmh SSE 7.0 mph11.3 kmh 30.11 in1019.6 mb 0.00 in0.0 mm 0.00 in0.0 mm 0.00 in0.0 mm
02:19 AM 50.0°F10.0°C 43.4°F6.3°C 78% 3.0 mph SE4.8 kmh SE 7.0 mph11.3 kmh 30.11 in1019.6 mb 0.00 in0.0 mm 0.00 in0.0 mm 0.00 in0.0 mm
02:21 AM 50.1°F10.1°C 43.5°F6.4°C 78% 3.0 mph S4.8 kmh S 7.0 mph11.3 kmh 30.11 in1019.6 mb 0.00 in0.0 mm 0.00 in0.0 mm 0.00 in0.0 mm
02:23 AM 50.1°F10.1°C 43.5°F6.4°C 78% 1.0 mph SSE1.6 kmh SSE 7.0 mph11.3 kmh 30.11 in1019.6 mb 0.00 in0.0 mm 0.00 in0.0 mm 0.00 in0.0 mm
02:25 AM 50.2°F10.1°C 43.6°F6.4°C 78% 4.0 mph SW6.4 kmh SW 7.0 mph11.3 kmh 30.11 in1019.6 mb 0.00 in0.0 mm 0.00 in0.0 mm 0.00 in0.0 mm
02:27 AM 50.3°F10.2°C 43.7°F6.5°C 78% 1.0 mph S1.6 kmh S 7.0 mph11.3 kmh 30.11 in1019.6 mb 0.00 in0.0 mm 0.00 in0.0 mm 0.00 in0.0 mm
02:29 AM 50.3°F10.2°C 43.7°F6.5°C 78% 1.0 mph SW1.6 kmh SW 7.0 mph11.3 kmh 30.11 in1019.6 mb 0.00 in0.0 mm 0.00 in0.0 mm 0.00 in0.0 mm
02:31 AM 50.3°F10.2°C 43.7°F6.5°C 78% 1.0 mph S1.6 kmh S 7.0 mph11.3 kmh 30.11 in1019.6 mb 0.00 in0.0 mm 0.00 in0.0 mm 0.00 in0.0 mm
02:33 AM 50.3°F10.2°C 43.7°F6.5°C 78% 1.0 mph W1.6 kmh W 7.0 mph11.3 kmh 30.11 in1019.6 mb 0.00 in0.0 mm 0.00 in0.0 mm 0.00 in0.0 mm
02:35 AM 50.3°F10.2°C 43.4°F6.3°C 77% 1.0 mph WSW1.6 kmh WSW 7.0 mph11.3 kmh 30.11 in1019.6 mb 0.00 in0.0 mm 0.00 in0.0 mm 0.00 in0.0 mm
02:37 AM 50.3°F10.2°C 43.4°F6.3°C 77% 2.0 mph S3.2 kmh S 7.0 mph11.3 kmh 30.11 in1019.6 mb 0.00 in0.0 mm 0.00 in0.0 mm 0.00 in0.0 mm
02:39 AM 50.3°F10.2°C 43.4°F6.3°C 77% Calm Calm 7.0 mph11.3 kmh 30.11 in1019.6 mb 0.00 in0.0 mm 0.00 in0.0 mm 0.00 in0.0 mm
02:41 AM 50.3°F10.2°C 43.7°F6.5°C 78% 1.0 mph ESE1.6 kmh ESE 7.0 mph11.3 kmh 30.11 in1019.6 mb 0.00 in0.0 mm 0.00 in0.0 mm 0.00 in0.0 mm
02:43 AM 50.3°F10.2°C 43.4°F6.3°C 77% 4.0 mph SSW6.4 kmh SSW 9.0 mph14.5 kmh 30.11 in1019.6 mb 0.00 in0.0 mm 0.00 in0.0 mm 0.00 in0.0 mm
02:45 AM 50.3°F10.2°C 43.4°F6.3°C 77% 4.0 mph SW6.4 kmh SW 9.0 mph14.5 kmh 30.11 in1019.6 mb 0.00 in0.0 mm 0.00 in0.0 mm 0.00 in0.0 mm
02:47 AM 50.4°F10.2°C 43.8°F6.6°C 78% 1.0 mph SW1.6 kmh SW 9.0 mph14.5 kmh 30.12 in1020.0 mb 0.00 in0.0 mm 0.00 in0.0 mm 0.00 in0.0 mm
02:49 AM 50.4°F10.2°C 43.5°F6.4°C 77% 2.0 mph S3.2 kmh S 9.0 mph14.5 kmh 30.12 in1020.0 mb 0.00 in0.0 mm 0.00 in0.0 mm 0.00 in0.0 mm
02:51 AM 50.4°F10.2°C 43.5°F6.4°C 77% 1.0 mph S1.6 kmh S 9.0 mph14.5 kmh 30.11 in1019.6 mb 0.00 in0.0 mm 0.00 in0.0 mm 0.00 in0.0 mm
02:53 AM 50.4°F10.2°C 43.5°F6.4°C 77% 1.0 mph S1.6 kmh S 9.0 mph14.5 kmh 30.11 in1019.6 mb 0.00 in0.0 mm 0.00 in0.0 mm 0.00 in0.0 mm
02:55 AM 50.4°F10.2°C 43.8°F6.6°C 78% 2.0 mph S3.2 kmh S 9.0 mph14.5 kmh 30.11 in1019.6 mb 0.00 in0.0 mm 0.00 in0.0 mm 0.00 in0.0 mm
02:57 AM 50.5°F10.3°C 43.9°F6.6°C 78% 3.0 mph S4.8 kmh S 9.0 mph14.5 kmh 30.12 in1020.0 mb 0.00 in0.0 mm 0.00 in0.0 mm 0.00 in0.0 mm
02:59 AM 50.5°F10.3°C 43.6°F6.4°C 77% 1.0 mph S1.6 kmh S 9.0 mph14.5 kmh 30.11 in1019.6 mb 0.00 in0.0 mm 0.00 in0.0 mm 0.00 in0.0 mm
03:01 AM 50.4°F10.2°C 43.5°F6.4°C 77% 2.0 mph S3.2 kmh S 9.0 mph14.5 kmh 30.11 in1019.6 mb 0.00 in0.0 mm 0.00 in0.0 mm 0.00 in0.0 mm
03:03 AM 50.4°F10.2°C 43.5°F6.4°C 77% 1.0 mph WSW1.6 kmh WSW 8.0 mph12.9 kmh 30.11 in1019.6 mb 0.00 in0.0 mm 0.00 in0.0 mm 0.00 in0.0 mm
03:05 AM 50.4°F10.2°C 43.5°F6.4°C 77% 2.0 mph WSW3.2 kmh WSW 8.0 mph12.9 kmh 30.11 in1019.6 mb 0.00 in0.0 mm 0.00 in0.0 mm 0.00 in0.0 mm
03:07 AM 50.4°F10.2°C 43.8°F6.6°C 78% 2.0 mph S3.2 kmh S 8.0 mph12.9 kmh 30.11 in1019.6 mb 0.00 in0.0 mm 0.00 in0.0 mm 0.00 in0.0 mm
03:09 AM 50.4°F10.2°C 43.8°F6.6°C 78% 2.0 mph S3.2 kmh S 8.0 mph12.9 kmh 30.11 in1019.6 mb 0.00 in0.0 mm 0.00 in0.0 mm 0.00 in0.0 mm
03:11 AM 50.4°F10.2°C 43.8°F6.6°C 78% 2.0 mph SSW3.2 kmh SSW 8.0 mph12.9 kmh 30.12 in1020.0 mb 0.00 in0.0 mm 0.00 in0.0 mm 0.00 in0.0 mm
03:13 AM 50.4°F10.2°C 43.8°F6.6°C 78% 2.0 mph S3.2 kmh S 7.0 mph11.3 kmh 30.12 in1020.0 mb 0.00 in0.0 mm 0.00 in0.0 mm 0.00 in0.0 mm
03:15 AM 50.4°F10.2°C 43.8°F6.6°C 78% 1.0 mph WNW1.6 kmh WNW 7.0 mph11.3 kmh 30.12 in1020.0 mb 0.00 in0.0 mm 0.00 in0.0 mm 0.00 in0.0 mm
03:17 AM 50.4°F10.2°C 43.5°F6.4°C 77% Calm Calm 7.0 mph11.3 kmh 30.12 in1020.0 mb 0.00 in0.0 mm 0.00 in0.0 mm 0.00 in0.0 mm
03:19 AM 50.4°F10.2°C 43.8°F6.6°C 78% 4.0 mph SW6.4 kmh SW 8.0 mph12.9 kmh 30.12 in1020.0 mb 0.00 in0.0 mm 0.00 in0.0 mm 0.00 in0.0 mm
03:21 AM 50.4°F10.2°C 43.8°F6.6°C 78% 3.0 mph S4.8 kmh S 8.0 mph12.9 kmh 30.11 in1019.6 mb 0.00 in0.0 mm 0.00 in0.0 mm 0.00 in0.0 mm
03:23 AM 50.5°F10.3°C 43.9°F6.6°C 78% 1.0 mph SW1.6 kmh SW 8.0 mph12.9 kmh 30.11 in1019.6 mb 0.00 in0.0 mm 0.00 in0.0 mm 0.00 in0.0 mm
03:25 AM 50.6°F10.3°C 44.0°F6.7°C 78% 1.0 mph S1.6 kmh S 8.0 mph12.9 kmh 30.11 in1019.6 mb 0.00 in0.0 mm 0.00 in0.0 mm 0.00 in0.0 mm
03:27 AM 50.6°F10.3°C 44.0°F6.7°C 78% 4.0 mph SSE6.4 kmh SSE 8.0 mph12.9 kmh 30.11 in1019.6 mb 0.00 in0.0 mm 0.00 in0.0 mm 0.00 in0.0 mm
03:29 AM 50.6°F10.3°C 44.0°F6.7°C 78% 2.0 mph SW3.2 kmh SW 8.0 mph12.9 kmh 30.11 in1019.6 mb 0.00 in0.0 mm 0.00 in0.0 mm 0.00 in0.0 mm
03:31 AM 50.6°F10.3°C 44.0°F6.7°C 78% 2.0 mph S3.2 kmh S 8.0 mph12.9 kmh 30.12 in1020.0 mb 0.00 in0.0 mm 0.00 in0.0 mm 0.00 in0.0 mm
03:33 AM 50.6°F10.3°C 44.0°F6.7°C 78% 4.0 mph S6.4 kmh S 8.0 mph12.9 kmh 30.11 in1019.6 mb 0.00 in0.0 mm 0.00 in0.0 mm 0.00 in0.0 mm
03:35 AM 50.7°F10.4°C 44.1°F6.7°C 78% 2.0 mph S3.2 kmh S 8.0 mph12.9 kmh 30.11 in1019.6 mb 0.00 in0.0 mm 0.00 in0.0 mm 0.00 in0.0 mm
03:37 AM 50.8°F10.4°C 44.2°F6.8°C 78% 2.0 mph W3.2 kmh W 8.0 mph12.9 kmh 30.12 in1020.0 mb 0.00 in0.0 mm 0.00 in0.0 mm 0.00 in0.0 mm
03:39 AM 50.9°F10.5°C 44.3°F6.8°C 78% 2.0 mph WSW3.2 kmh WSW 7.0 mph11.3 kmh 30.11 in1019.6 mb 0.00 in0.0 mm 0.00 in0.0 mm 0.00 in0.0 mm
03:41 AM 50.9°F10.5°C 44.3°F6.8°C 78% 1.0 mph WSW1.6 kmh WSW 7.0 mph11.3 kmh 30.12 in1020.0 mb 0.00 in0.0 mm 0.00 in0.0 mm 0.00 in0.0 mm
03:43 AM 50.9°F10.5°C 43.9°F6.6°C 77% 1.0 mph S1.6 kmh S 7.0 mph11.3 kmh 30.12 in1020.0 mb 0.00 in0.0 mm 0.00 in0.0 mm 0.00 in0.0 mm
03:45 AM 50.9°F10.5°C 43.9°F6.6°C 77% Calm Calm 7.0 mph11.3 kmh 30.12 in1020.0 mb 0.00 in0.0 mm 0.00 in0.0 mm 0.00 in0.0 mm
03:47 AM 50.9°F10.5°C 43.9°F6.6°C 77% Calm Calm 7.0 mph11.3 kmh 30.12 in1020.0 mb 0.00 in0.0 mm 0.00 in0.0 mm 0.00 in0.0 mm
03:49 AM 50.8°F10.4°C 44.2°F6.8°C 78% 2.0 mph SW3.2 kmh SW 5.0 mph8.0 kmh 30.12 in1020.0 mb 0.00 in0.0 mm 0.00 in0.0 mm 0.00 in0.0 mm
03:51 AM 50.8°F10.4°C 44.2°F6.8°C 78% 1.0 mph SSW1.6 kmh SSW 5.0 mph8.0 kmh 30.12 in1020.0 mb 0.00 in0.0 mm 0.00 in0.0 mm 0.00 in0.0 mm
03:53 AM 50.8°F10.4°C 44.2°F6.8°C 78% 1.0 mph S1.6 kmh S 5.0 mph8.0 kmh 30.12 in1020.0 mb 0.00 in0.0 mm 0.00 in0.0 mm 0.00 in0.0 mm
03:55 AM 50.7°F10.4°C 44.1°F6.7°C 78% 4.0 mph SE6.4 kmh SE 6.0 mph9.7 kmh 30.12 in1020.0 mb 0.00 in0.0 mm 0.00 in0.0 mm 0.00 in0.0 mm
03:57 AM 50.7°F10.4°C 44.1°F6.7°C 78% 1.0 mph SW1.6 kmh SW 6.0 mph9.7 kmh 30.12 in1020.0 mb 0.00 in0.0 mm 0.00 in0.0 mm 0.00 in0.0 mm
03:59 AM 50.7°F10.4°C 44.1°F6.7°C 78% Calm Calm 6.0 mph9.7 kmh 30.12 in1020.0 mb 0.00 in0.0 mm 0.00 in0.0 mm 0.00 in0.0 mm
04:01 AM 50.7°F10.4°C 44.1°F6.7°C 78% 3.0 mph S4.8 kmh S 6.0 mph9.7 kmh 30.12 in1020.0 mb 0.00 in0.0 mm 0.00 in0.0 mm 0.00 in0.0 mm
04:03 AM 50.7°F10.4°C 44.1°F6.7°C 78% 2.0 mph SSW3.2 kmh SSW 6.0 mph9.7 kmh 30.12 in1020.0 mb 0.00 in0.0 mm 0.00 in0.0 mm 0.00 in0.0 mm
04:05 AM 50.7°F10.4°C 44.1°F6.7°C 78% 1.0 mph SW1.6 kmh SW 6.0 mph9.7 kmh 30.12 in1020.0 mb 0.00 in0.0 mm 0.00 in0.0 mm 0.00 in0.0 mm
04:07 AM 50.8°F10.4°C 44.2°F6.8°C 78% 2.0 mph WSW3.2 kmh WSW 6.0 mph9.7 kmh 30.12 in1020.0 mb 0.00 in0.0 mm 0.00 in0.0 mm 0.00 in0.0 mm
04:09 AM 50.8°F10.4°C 44.2°F6.8°C 78% 5.0 mph SW8.0 kmh SW 7.0 mph11.3 kmh 30.12 in1020.0 mb 0.00 in0.0 mm 0.00 in0.0 mm 0.00 in0.0 mm
04:11 AM 50.9°F10.5°C 44.3°F6.8°C 78% 1.0 mph WSW1.6 kmh WSW 7.0 mph11.3 kmh 30.12 in1020.0 mb 0.00 in0.0 mm 0.00 in0.0 mm 0.00 in0.0 mm
04:13 AM 51.0°F10.6°C 44.4°F6.9°C 78% 3.0 mph SSW4.8 kmh SSW 7.0 mph11.3 kmh 30.12 in1020.0 mb 0.00 in0.0 mm 0.00 in0.0 mm 0.00 in0.0 mm
04:15 AM 51.0°F10.6°C 44.4°F6.9°C 78% 2.0 mph SW3.2 kmh SW 7.0 mph11.3 kmh 30.12 in1020.0 mb 0.00 in0.0 mm 0.00 in0.0 mm 0.00 in0.0 mm
04:17 AM 51.0°F10.6°C 44.4°F6.9°C 78% 1.0 mph WSW1.6 kmh WSW 7.0 mph11.3 kmh 30.12 in1020.0 mb 0.00 in0.0 mm 0.00 in0.0 mm 0.00 in0.0 mm
04:19 AM 51.0°F10.6°C 44.4°F6.9°C 78% 4.0 mph S6.4 kmh S 10.0 mph16.1 kmh 30.12 in1020.0 mb 0.00 in0.0 mm 0.00 in0.0 mm 0.00 in0.0 mm
04:21 AM 51.1°F10.6°C 44.5°F6.9°C 78% Calm Calm 10.0 mph16.1 kmh 30.12 in1020.0 mb 0.00 in0.0 mm 0.00 in0.0 mm 0.00 in0.0 mm
04:23 AM 51.1°F10.6°C 44.1°F6.7°C 77% 2.0 mph S3.2 kmh S 10.0 mph16.1 kmh 30.12 in1020.0 mb 0.00 in0.0 mm 0.00 in0.0 mm 0.00 in0.0 mm
04:25 AM 51.1°F10.6°C 44.5°F6.9°C 78% 2.0 mph S3.2 kmh S 10.0 mph16.1 kmh 30.12 in1020.0 mb 0.00 in0.0 mm 0.00 in0.0 mm 0.00 in0.0 mm
04:27 AM 51.1°F10.6°C 44.5°F6.9°C 78% 2.0 mph S3.2 kmh S 10.0 mph16.1 kmh 30.12 in1020.0 mb 0.00 in0.0 mm 0.00 in0.0 mm 0.00 in0.0 mm
04:29 AM 51.1°F10.6°C 44.1°F6.7°C 77% 5.0 mph SW8.0 kmh SW 10.0 mph16.1 kmh 30.12 in1020.0 mb 0.00 in0.0 mm 0.00 in0.0 mm 0.00 in0.0 mm
04:31 AM 51.1°F10.6°C 44.1°F6.7°C 77% 2.0 mph SSW3.2 kmh SSW 10.0 mph16.1 kmh 30.12 in1020.0 mb 0.00 in0.0 mm 0.00 in0.0 mm 0.00 in0.0 mm
04:33 AM 51.1°F10.6°C 44.1°F6.7°C 77% 4.0 mph SSW6.4 kmh SSW 10.0 mph16.1 kmh 30.12 in1020.0 mb 0.00 in0.0 mm 0.00 in0.0 mm 0.00 in0.0 mm
04:35 AM 51.2°F10.7°C 44.6°F7.0°C 78% 1.0 mph SSW1.6 kmh SSW 10.0 mph16.1 kmh 30.12 in1020.0 mb 0.00 in0.0 mm 0.00 in0.0 mm 0.00 in0.0 mm
04:37 AM 51.2°F10.7°C 44.6°F7.0°C 78% 3.0 mph S4.8 kmh S 10.0 mph16.1 kmh 30.12 in1020.0 mb 0.00 in0.0 mm 0.00 in0.0 mm 0.00 in0.0 mm
04:39 AM 51.3°F10.7°C 44.3°F6.8°C 77% 3.0 mph W4.8 kmh W 9.0 mph14.5 kmh 30.12 in1020.0 mb 0.00 in0.0 mm 0.00 in0.0 mm 0.00 in0.0 mm
04:41 AM 51.2°F10.7°C 44.2°F6.8°C 77% 1.0 mph S1.6 kmh S 9.0 mph14.5 kmh 30.12 in1020.0 mb 0.00 in0.0 mm 0.00 in0.0 mm 0.00 in0.0 mm
04:43 AM 51.3°F10.7°C 44.3°F6.8°C 77% 2.0 mph SSW3.2 kmh SSW 9.0 mph14.5 kmh 30.12 in1020.0 mb 0.00 in0.0 mm 0.00 in0.0 mm 0.00 in0.0 mm
04:45 AM 51.3°F10.7°C 44.3°F6.8°C 77% 4.0 mph SSW6.4 kmh SSW 9.0 mph14.5 kmh 30.12 in1020.0 mb 0.00 in0.0 mm 0.00 in0.0 mm 0.00 in0.0 mm
04:47 AM 51.4°F10.8°C 44.8°F7.1°C 78% 1.0 mph WSW1.6 kmh WSW 10.0 mph16.1 kmh 30.12 in1020.0 mb 0.00 in0.0 mm 0.00 in0.0 mm 0.00 in0.0 mm
04:49 AM 51.5°F10.8°C 44.9°F7.2°C 78% 3.0 mph S4.8 kmh S 10.0 mph16.1 kmh 30.12 in1020.0 mb 0.00 in0.0 mm 0.00 in0.0 mm 0.00 in0.0 mm
04:51 AM 51.6°F10.9°C 44.6°F7.0°C 77% 2.0 mph SSE3.2 kmh SSE 10.0 mph16.1 kmh 30.12 in1020.0 mb 0.00 in0.0 mm 0.00 in0.0 mm 0.00 in0.0 mm
04:53 AM 51.7°F10.9°C 44.7°F7.1°C 77% 2.0 mph S3.2 kmh S 10.0 mph16.1 kmh 30.12 in1020.0 mb 0.00 in0.0 mm 0.00 in0.0 mm 0.00 in0.0 mm
04:55 AM 51.7°F10.9°C 44.4°F6.9°C 76% 3.0 mph S4.8 kmh S 10.0 mph16.1 kmh 30.12 in1020.0 mb 0.00 in0.0 mm 0.00 in0.0 mm 0.00 in0.0 mm
04:57 AM 51.7°F10.9°C 44.7°F7.1°C 77% 6.0 mph S9.7 kmh S 10.0 mph16.1 kmh 30.12 in1020.0 mb 0.00 in0.0 mm 0.00 in0.0 mm 0.00 in0.0 mm
04:59 AM 51.8°F11.0°C 44.5°F6.9°C 76% 5.0 mph SSE8.0 kmh SSE 10.0 mph16.1 kmh 30.12 in1020.0 mb 0.00 in0.0 mm 0.00 in0.0 mm 0.00 in0.0 mm
05:01 AM 51.8°F11.0°C 44.5°F6.9°C 76% 3.0 mph SSW4.8 kmh SSW 10.0 mph16.1 kmh 30.12 in1020.0 mb 0.00 in0.0 mm 0.00 in0.0 mm 0.00 in0.0 mm
05:03 AM 51.9°F11.1°C 44.6°F7.0°C 76% Calm Calm 10.0 mph16.1 kmh 30.12 in1020.0 mb 0.00 in0.0 mm 0.00 in0.0 mm 0.00 in0.0 mm
05:05 AM 51.9°F11.1°C 44.6°F7.0°C 76% 2.0 mph SW3.2 kmh SW 10.0 mph16.1 kmh 30.12 in1020.0 mb 0.00 in0.0 mm 0.00 in0.0 mm 0.00 in0.0 mm
05:07 AM 51.9°F11.1°C 44.6°F7.0°C 76% 2.0 mph WSW3.2 kmh WSW 7.0 mph11.3 kmh 30.12 in1020.0 mb 0.00 in0.0 mm 0.00 in0.0 mm 0.00 in0.0 mm
05:09 AM 51.8°F11.0°C 44.5°F6.9°C 76% 2.0 mph WNW3.2 kmh WNW 7.0 mph11.3 kmh 30.12 in1020.0 mb 0.00 in0.0 mm 0.00 in0.0 mm 0.00 in0.0 mm
05:11 AM 51.8°F11.0°C 44.5°F6.9°C 76% 2.0 mph S3.2 kmh S 8.0 mph12.9 kmh 30.12 in1020.0 mb 0.00 in0.0 mm 0.00 in0.0 mm 0.00 in0.0 mm
05:13 AM 51.7°F10.9°C 44.4°F6.9°C 76% 3.0 mph S4.8 kmh S 8.0 mph12.9 kmh 30.12 in1020.0 mb 0.00 in0.0 mm 0.00 in0.0 mm 0.00 in0.0 mm
05:15 AM 51.7°F10.9°C 44.4°F6.9°C 76% 3.0 mph S4.8 kmh S 8.0 mph12.9 kmh 30.12 in1020.0 mb 0.00 in0.0 mm 0.00 in0.0 mm 0.00 in0.0 mm
05:17 AM 51.8°F11.0°C 44.5°F6.9°C 76% 1.0 mph S1.6 kmh S 8.0 mph12.9 kmh 30.12 in1020.0 mb 0.00 in0.0 mm 0.00 in0.0 mm 0.00 in0.0 mm
05:19 AM 51.7°F10.9°C 44.4°F6.9°C 76% 1.0 mph SSE1.6 kmh SSE 8.0 mph12.9 kmh 30.12 in1020.0 mb 0.00 in0.0 mm 0.00 in0.0 mm 0.00 in0.0 mm
05:21 AM 51.7°F10.9°C 44.4°F6.9°C 76% 2.0 mph S3.2 kmh S 9.0 mph14.5 kmh 30.12 in1020.0 mb 0.00 in0.0 mm 0.00 in0.0 mm 0.00 in0.0 mm
05:23 AM 51.7°F10.9°C 44.4°F6.9°C 76% 1.0 mph SSW1.6 kmh SSW 9.0 mph14.5 kmh 30.12 in1020.0 mb 0.00 in0.0 mm 0.00 in0.0 mm 0.00 in0.0 mm
05:25 AM 51.7°F10.9°C 44.4°F6.9°C 76% 2.0 mph S3.2 kmh S 9.0 mph14.5 kmh 30.11 in1019.6 mb 0.00 in0.0 mm 0.00 in0.0 mm 0.00 in0.0 mm
05:27 AM 51.6°F10.9°C 44.3°F6.8°C 76% 5.0 mph SE8.0 kmh SE 13.0 mph20.9 kmh 30.12 in1020.0 mb 0.00 in0.0 mm 0.00 in0.0 mm 0.00 in0.0 mm
05:29 AM 51.6°F10.9°C 44.3°F6.8°C 76% 6.0 mph SW9.7 kmh SW 13.0 mph20.9 kmh 30.12 in1020.0 mb 0.00 in0.0 mm 0.00 in0.0 mm 0.00 in0.0 mm
05:31 AM 51.6°F10.9°C 44.6°F7.0°C 77% 4.0 mph SSW6.4 kmh SSW 13.0 mph20.9 kmh 30.12 in1020.0 mb 0.00 in0.0 mm 0.00 in0.0 mm 0.00 in0.0 mm
05:33 AM 51.6°F10.9°C 44.3°F6.8°C 76% 1.0 mph SSW1.6 kmh SSW 13.0 mph20.9 kmh 30.12 in1020.0 mb 0.00 in0.0 mm 0.00 in0.0 mm 0.00 in0.0 mm
05:35 AM 51.7°F10.9°C 44.4°F6.9°C 76% 2.0 mph NW3.2 kmh NW 13.0 mph20.9 kmh 30.12 in1020.0 mb 0.00 in0.0 mm 0.00 in0.0 mm 0.00 in0.0 mm
05:37 AM 51.7°F10.9°C 44.4°F6.9°C 76% 2.0 mph WSW3.2 kmh WSW 13.0 mph20.9 kmh 30.12 in1020.0 mb 0.00 in0.0 mm 0.00 in0.0 mm 0.00 in0.0 mm
05:39 AM 51.7°F10.9°C 44.4°F6.9°C 76% 3.0 mph SSW4.8 kmh SSW 13.0 mph20.9 kmh 30.12 in1020.0 mb 0.00 in0.0 mm 0.00 in0.0 mm 0.00 in0.0 mm
05:41 AM 51.7°F10.9°C 44.4°F6.9°C 76% 4.0 mph SW6.4 kmh SW 13.0 mph20.9 kmh 30.12 in1020.0 mb 0.00 in0.0 mm 0.00 in0.0 mm 0.00 in0.0 mm
05:43 AM 51.7°F10.9°C 44.4°F6.9°C 76% 4.0 mph SSE6.4 kmh SSE 13.0 mph20.9 kmh 30.12 in1020.0 mb 0.00 in0.0 mm 0.00 in0.0 mm 0.00 in0.0 mm
05:45 AM 51.8°F11.0°C 44.5°F6.9°C 76% 3.0 mph SSW4.8 kmh SSW 13.0 mph20.9 kmh 30.12 in1020.0 mb 0.00 in0.0 mm 0.00 in0.0 mm 0.00 in0.0 mm
05:47 AM 51.8°F11.0°C 44.5°F6.9°C 76% 2.0 mph S3.2 kmh S 10.0 mph16.1 kmh 30.12 in1020.0 mb 0.00 in0.0 mm 0.00 in0.0 mm 0.00 in0.0 mm
05:49 AM 51.7°F10.9°C 44.4°F6.9°C 76% 1.0 mph N1.6 kmh N 10.0 mph16.1 kmh 30.11 in1019.6 mb 0.00 in0.0 mm 0.00 in0.0 mm 0.00 in0.0 mm
05:51 AM 51.7°F10.9°C 44.4°F6.9°C 76% 3.0 mph W4.8 kmh W 10.0 mph16.1 kmh 30.12 in1020.0 mb 0.00 in0.0 mm 0.00 in0.0 mm 0.00 in0.0 mm
05:53 AM 51.7°F10.9°C 44.7°F7.1°C 77% 1.0 mph WNW1.6 kmh WNW 10.0 mph16.1 kmh 30.12 in1020.0 mb 0.00 in0.0 mm 0.00 in0.0 mm 0.00 in0.0 mm
05:55 AM 51.7°F10.9°C 44.4°F6.9°C 76% 1.0 mph SSW1.6 kmh SSW 10.0 mph16.1 kmh 30.12 in1020.0 mb 0.00 in0.0 mm 0.00 in0.0 mm 0.00 in0.0 mm
05:57 AM 51.7°F10.9°C 44.4°F6.9°C 76% 2.0 mph SW3.2 kmh SW 7.0 mph11.3 kmh 30.12 in1020.0 mb 0.00 in0.0 mm 0.00 in0.0 mm 0.00 in0.0 mm
05:59 AM 51.7°F10.9°C 44.4°F6.9°C 76% 2.0 mph S3.2 kmh S 7.0 mph11.3 kmh 30.12 in1020.0 mb 0.00 in0.0 mm 0.00 in0.0 mm 0.00 in0.0 mm
06:01 AM 51.7°F10.9°C 44.4°F6.9°C 76% 1.0 mph S1.6 kmh S 7.0 mph11.3 kmh 30.12 in1020.0 mb 0.00 in0.0 mm 0.00 in0.0 mm 0.00 in0.0 mm
06:03 AM 51.7°F10.9°C 44.4°F6.9°C 76% 3.0 mph S4.8 kmh S 7.0 mph11.3 kmh 30.11 in1019.6 mb 0.00 in0.0 mm 0.00 in0.0 mm 0.00 in0.0 mm
06:05 AM 51.7°F10.9°C 44.4°F6.9°C 76% 4.0 mph ESE6.4 kmh ESE 7.0 mph11.3 kmh 30.11 in1019.6 mb 0.00 in0.0 mm 0.00 in0.0 mm 0.00 in0.0 mm
06:07 AM 51.7°F10.9°C 44.4°F6.9°C 76% 2.0 mph S3.2 kmh S 8.0 mph12.9 kmh 30.12 in1020.0 mb 0.00 in0.0 mm 0.00 in0.0 mm 0.00 in0.0 mm
06:09 AM 51.7°F10.9°C 44.4°F6.9°C 76% 1.0 mph WSW1.6 kmh WSW 8.0 mph12.9 kmh 30.12 in1020.0 mb 0.00 in0.0 mm 0.00 in0.0 mm 0.00 in0.0 mm
06:11 AM 51.7°F10.9°C 44.4°F6.9°C 76% 1.0 mph WSW1.6 kmh WSW 8.0 mph12.9 kmh 30.12 in1020.0 mb 0.00 in0.0 mm 0.00 in0.0 mm 0.00 in0.0 mm
06:13 AM 51.7°F10.9°C 44.4°F6.9°C 76% 5.0 mph SE8.0 kmh SE 9.0 mph14.5 kmh 30.12 in1020.0 mb 0.00 in0.0 mm 0.00 in0.0 mm 0.00 in0.0 mm
06:15 AM 51.7°F10.9°C 44.4°F6.9°C 76% 4.0 mph S6.4 kmh S 9.0 mph14.5 kmh 30.12 in1020.0 mb 0.00 in0.0 mm 0.00 in0.0 mm 0.00 in0.0 mm
06:17 AM 51.7°F10.9°C 44.4°F6.9°C 76% 1.0 mph E1.6 kmh E 9.0 mph14.5 kmh 30.12 in1020.0 mb 0.00 in0.0 mm 0.00 in0.0 mm 0.00 in0.0 mm
06:19 AM 51.7°F10.9°C 44.4°F6.9°C 76% Calm Calm 9.0 mph14.5 kmh 30.12 in1020.0 mb 0.00 in0.0 mm 0.00 in0.0 mm 0.00 in0.0 mm
06:21 AM 51.7°F10.9°C 44.4°F6.9°C 76% Calm Calm 9.0 mph14.5 kmh 30.12 in1020.0 mb 0.00 in0.0 mm 0.00 in0.0 mm 0.00 in0.0 mm
06:23 AM 51.7°F10.9°C 44.4°F6.9°C 76% 1.0 mph SSW1.6 kmh SSW 9.0 mph14.5 kmh 30.12 in1020.0 mb 0.00 in0.0 mm 0.00 in0.0 mm 0.00 in0.0 mm
06:25 AM 51.7°F10.9°C 44.4°F6.9°C 76% 1.0 mph SSE1.6 kmh SSE 9.0 mph14.5 kmh 30.12 in1020.0 mb 0.00 in0.0 mm 0.00 in0.0 mm 0.00 in0.0 mm
06:27 AM 51.6°F10.9°C 44.3°F6.8°C 76% Calm Calm 9.0 mph14.5 kmh 30.12 in1020.0 mb 0.00 in0.0 mm 0.00 in0.0 mm 0.00 in0.0 mm
06:29 AM 51.6°F10.9°C 44.3°F6.8°C 76% 1.0 mph S1.6 kmh S 10.0 mph16.1 kmh 30.12 in1020.0 mb 0.00 in0.0 mm 0.00 in0.0 mm 0.00 in0.0 mm
06:31 AM 51.7°F10.9°C 44.4°F6.9°C 76% 2.0 mph S3.2 kmh S 10.0 mph16.1 kmh 30.12 in1020.0 mb 0.00 in0.0 mm 0.00 in0.0 mm 0.00 in0.0 mm
06:33 AM 51.7°F10.9°C 44.4°F6.9°C 76% 3.0 mph S4.8 kmh S 10.0 mph16.1 kmh 30.12 in1020.0 mb 0.00 in0.0 mm 0.00 in0.0 mm 0.00 in0.0 mm
06:35 AM 51.8°F11.0°C 44.5°F6.9°C 76% 1.0 mph S1.6 kmh S 10.0 mph16.1 kmh 30.12 in1020.0 mb 0.00 in0.0 mm 0.00 in0.0 mm 0.00 in0.0 mm
06:37 AM 51.8°F11.0°C 44.5°F6.9°C 76% 2.0 mph S3.2 kmh S 10.0 mph16.1 kmh 30.12 in1020.0 mb 0.00 in0.0 mm 0.00 in0.0 mm 0.00 in0.0 mm
06:39 AM 51.8°F11.0°C 44.5°F6.9°C 76% 2.0 mph SSE3.2 kmh SSE 10.0 mph16.1 kmh 30.12 in1020.0 mb 0.00 in0.0 mm 0.00 in0.0 mm 0.00 in0.0 mm
06:41 AM 51.8°F11.0°C 44.5°F6.9°C 76% 3.0 mph SSE4.8 kmh SSE 10.0 mph16.1 kmh 30.12 in1020.0 mb 0.00 in0.0 mm 0.00 in0.0 mm 0.00 in0.0 mm
06:43 AM 51.8°F11.0°C 44.5°F6.9°C 76% 3.0 mph SW4.8 kmh SW 10.0 mph16.1 kmh 30.12 in1020.0 mb 0.00 in0.0 mm 0.00 in0.0 mm 0.00 in0.0 mm
06:45 AM 51.8°F11.0°C 44.5°F6.9°C 76% 2.0 mph SE3.2 kmh SE 10.0 mph16.1 kmh 30.12 in1020.0 mb 0.00 in0.0 mm 0.00 in0.0 mm 0.00 in0.0 mm
06:47 AM 51.8°F11.0°C 44.5°F6.9°C 76% 4.0 mph SSW6.4 kmh SSW 11.0 mph17.7 kmh 30.12 in1020.0 mb 0.00 in0.0 mm 0.00 in0.0 mm 0.00 in0.0 mm
06:49 AM 51.9°F11.1°C 44.6°F7.0°C 76% 2.0 mph S3.2 kmh S 11.0 mph17.7 kmh 30.12 in1020.0 mb 0.00 in0.0 mm 0.00 in0.0 mm 0.00 in0.0 mm
06:51 AM 51.8°F11.0°C 44.5°F6.9°C 76% 6.0 mph SSE9.7 kmh SSE 11.0 mph17.7 kmh 30.12 in1020.0 mb 0.00 in0.0 mm 0.00 in0.0 mm 0.00 in0.0 mm
06:53 AM 51.8°F11.0°C 44.5°F6.9°C 76% Calm Calm 11.0 mph17.7 kmh 30.12 in1020.0 mb 0.00 in0.0 mm 0.00 in0.0 mm 0.00 in0.0 mm
06:55 AM 51.8°F11.0°C 44.5°F6.9°C 76% Calm Calm 11.0 mph17.7 kmh 30.12 in1020.0 mb 0.00 in0.0 mm 0.00 in0.0 mm 0.00 in0.0 mm
06:57 AM 51.8°F11.0°C 44.5°F6.9°C 76% 3.0 mph S4.8 kmh S 5.0 mph8.0 kmh 30.12 in1020.0 mb 0.00 in0.0 mm 0.00 in0.0 mm 0.00 in0.0 mm
06:59 AM 51.7°F10.9°C 44.4°F6.9°C 76% 3.0 mph S4.8 kmh S 5.0 mph8.0 kmh 30.12 in1020.0 mb 0.00 in0.0 mm 0.00 in0.0 mm 0.00 in0.0 mm
07:01 AM 51.7°F10.9°C 44.4°F6.9°C 76% 1.0 mph S1.6 kmh S 5.0 mph8.0 kmh 30.12 in1020.0 mb 0.00 in0.0 mm 0.00 in0.0 mm 0.00 in0.0 mm
07:03 AM 51.7°F10.9°C 44.4°F6.9°C 76% 2.0 mph S3.2 kmh S 7.0 mph11.3 kmh 30.12 in1020.0 mb 0.00 in0.0 mm 0.00 in0.0 mm 0.00 in0.0 mm
07:05 AM 51.6°F10.9°C 44.3°F6.8°C 76% 1.0 mph SSW1.6 kmh SSW 7.0 mph11.3 kmh 30.12 in1020.0 mb 0.00 in0.0 mm 0.00 in0.0 mm 0.00 in0.0 mm
07:07 AM 51.7°F10.9°C 44.4°F6.9°C 76% 2.0 mph ESE3.2 kmh ESE 7.0 mph11.3 kmh 30.12 in1020.0 mb 0.00 in0.0 mm 0.00 in0.0 mm 0.00 in0.0 mm
07:09 AM 51.7°F10.9°C 44.4°F6.9°C 76% 1.0 mph WSW1.6 kmh WSW 7.0 mph11.3 kmh 30.13 in1020.3 mb 0.00 in0.0 mm 0.00 in0.0 mm 0.00 in0.0 mm
07:11 AM 51.6°F10.9°C 44.3°F6.8°C 76% 4.0 mph S6.4 kmh S 10.0 mph16.1 kmh 30.13 in1020.3 mb 0.00 in0.0 mm 0.00 in0.0 mm 0.00 in0.0 mm
07:13 AM 51.7°F10.9°C 44.4°F6.9°C 76% 3.0 mph W4.8 kmh W 10.0 mph16.1 kmh 30.13 in1020.3 mb 0.00 in0.0 mm 0.00 in0.0 mm 0.00 in0.0 mm
07:15 AM 51.6°F10.9°C 44.3°F6.8°C 76% 3.0 mph SW4.8 kmh SW 10.0 mph16.1 kmh 30.13 in1020.3 mb 0.00 in0.0 mm 0.00 in0.0 mm 0.00 in0.0 mm
07:17 AM 51.6°F10.9°C 44.3°F6.8°C 76% 1.0 mph SSW1.6 kmh SSW 10.0 mph16.1 kmh 30.13 in1020.3 mb 0.00 in0.0 mm 0.00 in0.0 mm 0.00 in0.0 mm
07:19 AM 51.5°F10.8°C 44.2°F6.8°C 76% 3.0 mph WSW4.8 kmh WSW 10.0 mph16.1 kmh 30.13 in1020.3 mb 0.00 in0.0 mm 0.00 in0.0 mm 0.00 in0.0 mm
07:21 AM 51.5°F10.8°C 44.2°F6.8°C 76% 3.0 mph SW4.8 kmh SW 11.0 mph17.7 kmh 30.13 in1020.3 mb 0.00 in0.0 mm 0.00 in0.0 mm 0.00 in0.0 mm
07:23 AM 51.5°F10.8°C 44.2°F6.8°C 76% 3.0 mph WSW4.8 kmh WSW 11.0 mph17.7 kmh 30.13 in1020.3 mb 0.00 in0.0 mm 0.00 in0.0 mm 0.00 in0.0 mm
07:25 AM 51.5°F10.8°C 44.2°F6.8°C 76% 1.0 mph S1.6 kmh S 11.0 mph17.7 kmh 30.13 in1020.3 mb 0.00 in0.0 mm 0.00 in0.0 mm 0.00 in0.0 mm
07:27 AM 51.5°F10.8°C 44.2°F6.8°C 76% 1.0 mph S1.6 kmh S 11.0 mph17.7 kmh 30.13 in1020.3 mb 0.00 in0.0 mm 0.00 in0.0 mm 0.00 in0.0 mm
07:29 AM 51.4°F10.8°C 44.4°F6.9°C 77% 1.0 mph WNW1.6 kmh WNW 11.0 mph17.7 kmh 30.13 in1020.3 mb 0.00 in0.0 mm 0.00 in0.0 mm 0.00 in0.0 mm
07:31 AM 51.4°F10.8°C 44.4°F6.9°C 77% 3.0 mph S4.8 kmh S 6.0 mph9.7 kmh 30.13 in1020.3 mb 0.00 in0.0 mm 0.00 in0.0 mm 0.00 in0.0 mm
07:33 AM 51.5°F10.8°C 44.2°F6.8°C 76% 1.0 mph SW1.6 kmh SW 6.0 mph9.7 kmh 30.13 in1020.3 mb 0.00 in0.0 mm 0.00 in0.0 mm 0.00 in0.0 mm
07:35 AM 51.5°F10.8°C 44.2°F6.8°C 76% 1.0 mph SSE1.6 kmh SSE 6.0 mph9.7 kmh 30.13 in1020.3 mb 0.00 in0.0 mm 0.00 in0.0 mm 0.00 in0.0 mm
07:37 AM 51.5°F10.8°C 44.2°F6.8°C 76% 1.0 mph SW1.6 kmh SW 8.0 mph12.9 kmh 30.13 in1020.3 mb 0.00 in0.0 mm 0.00 in0.0 mm 0.00 in0.0 mm
07:39 AM 51.5°F10.8°C 44.2°F6.8°C 76% Calm Calm 8.0 mph12.9 kmh 30.13 in1020.3 mb 0.00 in0.0 mm 0.00 in0.0 mm 0.00 in0.0 mm
07:41 AM 51.4°F10.8°C 44.1°F6.7°C 76% 1.0 mph S1.6 kmh S 8.0 mph12.9 kmh 30.13 in1020.3 mb 0.00 in0.0 mm 0.00 in0.0 mm 0.00 in0.0 mm
07:43 AM 51.4°F10.8°C 44.4°F6.9°C 77% 1.0 mph SSW1.6 kmh SSW 8.0 mph12.9 kmh 30.13 in1020.3 mb 0.00 in0.0 mm 0.00 in0.0 mm 0.00 in0.0 mm
07:45 AM 51.4°F10.8°C 44.4°F6.9°C 77% 2.0 mph SW3.2 kmh SW 8.0 mph12.9 kmh 30.13 in1020.3 mb 0.00 in0.0 mm 0.00 in0.0 mm 0.00 in0.0 mm
07:47 AM 51.3°F10.7°C 44.3°F6.8°C 77% 1.0 mph S1.6 kmh S 8.0 mph12.9 kmh 30.13 in1020.3 mb 0.00 in0.0 mm 0.00 in0.0 mm 0.00 in0.0 mm
07:49 AM 51.3°F10.7°C 44.3°F6.8°C 77% Calm Calm 8.0 mph12.9 kmh 30.13 in1020.3 mb 0.00 in0.0 mm 0.00 in0.0 mm 0.00 in0.0 mm
07:51 AM 51.3°F10.7°C 44.7°F7.1°C 78% 1.0 mph SSE1.6 kmh SSE 8.0 mph12.9 kmh 30.13 in1020.3 mb 0.00 in0.0 mm 0.00 in0.0 mm 0.00 in0.0 mm
07:53 AM 51.2°F10.7°C 44.6°F7.0°C 78% 3.0 mph SW4.8 kmh SW 8.0 mph12.9 kmh 30.13 in1020.3 mb 0.00 in0.0 mm 0.00 in0.0 mm 0.00 in0.0 mm
07:55 AM 51.3°F10.7°C 44.7°F7.1°C 78% 3.0 mph WSW4.8 kmh WSW 8.0 mph12.9 kmh 30.14 in1020.7 mb 0.00 in0.0 mm 0.00 in0.0 mm 0.00 in0.0 mm
07:57 AM 51.2°F10.7°C 44.6°F7.0°C 78% 3.0 mph SW4.8 kmh SW 6.0 mph9.7 kmh 30.14 in1020.7 mb 0.00 in0.0 mm 0.00 in0.0 mm 0.00 in0.0 mm
07:59 AM 51.2°F10.7°C 44.6°F7.0°C 78% 5.0 mph SSW8.0 kmh SSW 7.0 mph11.3 kmh 30.14 in1020.7 mb 0.00 in0.0 mm 0.00 in0.0 mm 0.00 in0.0 mm
08:01 AM 51.3°F10.7°C 45.0°F7.2°C 79% 1.0 mph S1.6 kmh S 7.0 mph11.3 kmh 30.14 in1020.7 mb 0.00 in0.0 mm 0.00 in0.0 mm 0.00 in0.0 mm
08:03 AM 51.2°F10.7°C 44.9°F7.2°C 79% Calm Calm 7.0 mph11.3 kmh 30.14 in1020.7 mb 0.00 in0.0 mm 0.00 in0.0 mm 0.00 in0.0 mm
08:05 AM 51.2°F10.7°C 44.9°F7.2°C 79% Calm Calm 7.0 mph11.3 kmh 30.14 in1020.7 mb 0.00 in0.0 mm 0.00 in0.0 mm 0.00 in0.0 mm
08:07 AM 51.1°F10.6°C 45.1°F7.3°C 80% Calm Calm 7.0 mph11.3 kmh 30.14 in1020.7 mb 0.00 in0.0 mm 0.00 in0.0 mm 0.00 in0.0 mm
08:09 AM 51.0°F10.6°C 45.4°F7.4°C 81% Calm Calm 7.0 mph11.3 kmh 30.14 in1020.7 mb 0.00 in0.0 mm 0.00 in0.0 mm 0.00 in0.0 mm
08:11 AM 50.9°F10.5°C 45.3°F7.4°C 81% 1.0 mph S1.6 kmh S 7.0 mph11.3 kmh 30.14 in1020.7 mb 0.00 in0.0 mm 0.00 in0.0 mm 0.00 in0.0 mm
08:13 AM 50.8°F10.4°C 45.5°F7.5°C 82% 1.0 mph S1.6 kmh S 7.0 mph11.3 kmh 30.14 in1020.7 mb 0.00 in0.0 mm 0.00 in0.0 mm 0.00 in0.0 mm
08:15 AM 50.7°F10.4°C 45.4°F7.4°C 82% 4.0 mph SW6.4 kmh SW 7.0 mph11.3 kmh 30.14 in1020.7 mb 0.00 in0.0 mm 0.00 in0.0 mm 0.00 in0.0 mm
08:17 AM 50.6°F10.3°C 45.3°F7.4°C 82% 1.0 mph SW1.6 kmh SW 7.0 mph11.3 kmh 30.14 in1020.7 mb 0.00 in0.0 mm 0.00 in0.0 mm 0.00 in0.0 mm
08:19 AM 50.5°F10.3°C 45.5°F7.5°C 83% 2.0 mph SW3.2 kmh SW 5.0 mph8.0 kmh 30.14 in1020.7 mb 0.00 in0.0 mm 0.00 in0.0 mm 0.00 in0.0 mm
08:21 AM 50.4°F10.2°C 45.4°F7.4°C 83% Calm Calm 5.0 mph8.0 kmh 30.14 in1020.7 mb 0.00 in0.0 mm 0.00 in0.0 mm 0.00 in0.0 mm
08:23 AM 50.3°F10.2°C 45.3°F7.4°C 83% 1.0 mph SSW1.6 kmh SSW 6.0 mph9.7 kmh 30.14 in1020.7 mb 0.00 in0.0 mm 0.00 in0.0 mm 0.00 in0.0 mm
08:25 AM 50.2°F10.1°C 45.6°F7.6°C 84% 1.0 mph W1.6 kmh W 6.0 mph9.7 kmh 30.14 in1020.7 mb 0.00 in0.0 mm 0.00 in0.0 mm 0.00 in0.0 mm
08:27 AM 50.1°F10.1°C 45.5°F7.5°C 84% 1.0 mph W1.6 kmh W 6.0 mph9.7 kmh 30.14 in1020.7 mb 0.00 in0.0 mm 0.00 in0.0 mm 0.00 in0.0 mm
08:29 AM 50.1°F10.1°C 45.5°F7.5°C 84% 1.0 mph SW1.6 kmh SW 6.0 mph9.7 kmh 30.14 in1020.7 mb 0.00 in0.0 mm 0.00 in0.0 mm 0.00 in0.0 mm
08:31 AM 50.0°F10.0°C 45.4°F7.4°C 84% Calm Calm 6.0 mph9.7 kmh 30.14 in1020.7 mb 0.00 in0.0 mm 0.00 in0.0 mm 0.00 in0.0 mm
08:33 AM 49.9°F9.9°C 45.6°F7.6°C 85% Calm Calm 6.0 mph9.7 kmh 30.14 in1020.7 mb 0.00 in0.0 mm 0.00 in0.0 mm 0.00 in0.0 mm
08:35 AM 49.9°F9.9°C 45.6°F7.6°C 85% 1.0 mph SSW1.6 kmh SSW 6.0 mph9.7 kmh 30.14 in1020.7 mb 0.00 in0.0 mm 0.00 in0.0 mm 0.00 in0.0 mm
08:37 AM 49.8°F9.9°C 45.5°F7.5°C 85% Calm Calm 6.0 mph9.7 kmh 30.14 in1020.7 mb 0.00 in0.0 mm 0.00 in0.0 mm 0.00 in0.0 mm
08:39 AM 49.8°F9.9°C 45.5°F7.5°C 85% Calm Calm -- 30.14 in1020.7 mb 0.00 in0.0 mm 0.00 in0.0 mm 0.00 in0.0 mm
08:41 AM 49.7°F9.8°C 45.7°F7.6°C 86% Calm Calm 2.0 mph3.2 kmh 30.14 in1020.7 mb 0.00 in0.0 mm 0.00 in0.0 mm 0.00 in0.0 mm
08:43 AM 49.6°F9.8°C 45.6°F7.6°C 86% Calm Calm 3.0 mph4.8 kmh 30.14 in1020.7 mb 0.00 in0.0 mm 0.00 in0.0 mm 0.00 in0.0 mm
08:45 AM 49.6°F9.8°C 45.6°F7.6°C 86% Calm Calm 3.0 mph4.8 kmh 30.15 in1021.0 mb 0.00 in0.0 mm 0.00 in0.0 mm 0.00 in0.0 mm
08:47 AM 49.5°F9.7°C 45.5°F7.5°C 86% 3.0 mph S4.8 kmh S 5.0 mph8.0 kmh 30.15 in1021.0 mb 0.00 in0.0 mm 0.00 in0.0 mm 0.00 in0.0 mm
08:49 AM 49.5°F9.7°C 45.5°F7.5°C 86% 1.0 mph S1.6 kmh S 5.0 mph8.0 kmh 30.14 in1020.7 mb 0.00 in0.0 mm 0.00 in0.0 mm 0.00 in0.0 mm
08:51 AM 49.4°F9.7°C 45.4°F7.4°C 86% 1.0 mph SW1.6 kmh SW 5.0 mph8.0 kmh 30.14 in1020.7 mb 0.00 in0.0 mm 0.00 in0.0 mm 0.01 in0.3 mm
08:53 AM 49.3°F9.6°C 45.3°F7.4°C 86% 2.0 mph SW3.2 kmh SW 5.0 mph8.0 kmh 30.14 in1020.7 mb 0.00 in0.0 mm 0.00 in0.0 mm 0.01 in0.3 mm
08:55 AM 49.3°F9.6°C 45.6°F7.6°C 87% 3.0 mph SW4.8 kmh SW 7.0 mph11.3 kmh 30.14 in1020.7 mb 0.00 in0.0 mm 0.00 in0.0 mm 0.01 in0.3 mm
08:57 AM 49.3°F9.6°C 45.6°F7.6°C 87% 2.0 mph S3.2 kmh S 12.0 mph19.3 kmh 30.14 in1020.7 mb 0.00 in0.0 mm 0.00 in0.0 mm 0.01 in0.3 mm
08:59 AM 49.3°F9.6°C 45.6°F7.6°C 87% 2.0 mph SSE3.2 kmh SSE 12.0 mph19.3 kmh 30.14 in1020.7 mb 0.07 in1.8 mm 2.10 in53.3 mm 0.02 in0.5 mm
09:01 AM 49.4°F9.7°C 45.7°F7.6°C 87% 2.0 mph SSE3.2 kmh SSE 12.0 mph19.3 kmh 30.14 in1020.7 mb 0.07 in1.8 mm 0.00 in0.0 mm 0.02 in0.5 mm
09:03 AM 49.4°F9.7°C 45.7°F7.6°C 87% 5.0 mph SSW8.0 kmh SSW 12.0 mph19.3 kmh 30.13 in1020.3 mb 0.07 in1.8 mm 0.00 in0.0 mm 0.02 in0.5 mm
09:05 AM 49.4°F9.7°C 45.7°F7.6°C 87% 2.0 mph SSE3.2 kmh SSE 12.0 mph19.3 kmh 30.13 in1020.3 mb 0.07 in1.8 mm 0.00 in0.0 mm 0.02 in0.5 mm
09:07 AM 49.4°F9.7°C 45.7°F7.6°C 87% 3.0 mph SE4.8 kmh SE 12.0 mph19.3 kmh 30.13 in1020.3 mb 0.06 in1.5 mm 0.00 in0.0 mm 0.02 in0.5 mm
09:09 AM 49.4°F9.7°C 45.7°F7.6°C 87% 2.0 mph SE3.2 kmh SE 12.0 mph19.3 kmh 30.13 in1020.3 mb 0.05 in1.3 mm 0.00 in0.0 mm 0.02 in0.5 mm
09:11 AM 49.4°F9.7°C 45.7°F7.6°C 87% Calm Calm 12.0 mph19.3 kmh 30.13 in1020.3 mb 0.04 in1.0 mm 0.00 in0.0 mm 0.02 in0.5 mm
09:13 AM 49.4°F9.7°C 46.0°F7.8°C 88% 3.0 mph SE4.8 kmh SE 12.0 mph19.3 kmh 30.12 in1020.0 mb 0.04 in1.0 mm 0.00 in0.0 mm 0.02 in0.5 mm
09:15 AM 49.4°F9.7°C 46.0°F7.8°C 88% 3.0 mph ESE4.8 kmh ESE 12.0 mph19.3 kmh 30.12 in1020.0 mb 0.00 in0.0 mm 0.00 in0.0 mm 0.02 in0.5 mm
09:17 AM 49.5°F9.7°C 46.1°F7.8°C 88% 3.0 mph SSW4.8 kmh SSW 8.0 mph12.9 kmh 30.12 in1020.0 mb 0.00 in0.0 mm 0.00 in0.0 mm 0.02 in0.5 mm
09:19 AM 49.5°F9.7°C 45.8°F7.7°C 87% 1.0 mph NE1.6 kmh NE 8.0 mph12.9 kmh 30.12 in1020.0 mb 0.00 in0.0 mm 0.00 in0.0 mm 0.02 in0.5 mm
09:21 AM 49.5°F9.7°C 45.8°F7.7°C 87% 1.0 mph SE1.6 kmh SE 8.0 mph12.9 kmh 30.12 in1020.0 mb 0.00 in0.0 mm 0.00 in0.0 mm 0.02 in0.5 mm
09:23 AM 49.6°F9.8°C 45.9°F7.7°C 87% 5.0 mph SSE8.0 kmh SSE 8.0 mph12.9 kmh 30.11 in1019.6 mb 0.00 in0.0 mm 0.00 in0.0 mm 0.02 in0.5 mm
09:25 AM 49.6°F9.8°C 45.9°F7.7°C 87% 1.0 mph SE1.6 kmh SE 8.0 mph12.9 kmh 30.11 in1019.6 mb 0.00 in0.0 mm 0.00 in0.0 mm 0.02 in0.5 mm
09:27 AM 49.7°F9.8°C 46.0°F7.8°C 87% 2.0 mph SE3.2 kmh SE 7.0 mph11.3 kmh 30.11 in1019.6 mb 0.00 in0.0 mm 0.00 in0.0 mm 0.02 in0.5 mm
09:29 AM 49.8°F9.9°C 46.1°F7.8°C 87% Calm Calm 7.0 mph11.3 kmh 30.11 in1019.6 mb 0.00 in0.0 mm 0.00 in0.0 mm 0.02 in0.5 mm
09:31 AM 49.9°F9.9°C 46.2°F7.9°C 87% 1.0 mph S1.6 kmh S 7.0 mph11.3 kmh 30.12 in1020.0 mb 0.00 in0.0 mm 0.00 in0.0 mm 0.02 in0.5 mm
09:33 AM 50.0°F10.0°C 46.3°F7.9°C 87% Calm Calm 7.0 mph11.3 kmh 30.12 in1020.0 mb 0.00 in0.0 mm 0.00 in0.0 mm 0.02 in0.5 mm
09:35 AM 50.1°F10.1°C 46.1°F7.8°C 86% Calm Calm 7.0 mph11.3 kmh 30.11 in1019.6 mb 0.00 in0.0 mm 0.00 in0.0 mm 0.02 in0.5 mm
09:37 AM 50.1°F10.1°C 46.1°F7.8°C 86% Calm Calm 4.0 mph6.4 kmh 30.12 in1020.0 mb 0.00 in0.0 mm 0.00 in0.0 mm 0.02 in0.5 mm
09:39 AM 50.2°F10.1°C 46.2°F7.9°C 86% 1.0 mph SSE1.6 kmh SSE 6.0 mph9.7 kmh 30.11 in1019.6 mb 0.00 in0.0 mm 0.00 in0.0 mm 0.02 in0.5 mm
09:41 AM 50.3°F10.2°C 46.0°F7.8°C 85% 2.0 mph SSE3.2 kmh SSE 6.0 mph9.7 kmh 30.11 in1019.6 mb 0.00 in0.0 mm 0.00 in0.0 mm 0.02 in0.5 mm
09:43 AM 50.3°F10.2°C 46.0°F7.8°C 85% 3.0 mph SW4.8 kmh SW 6.0 mph9.7 kmh 30.11 in1019.6 mb 0.00 in0.0 mm 0.00 in0.0 mm 0.02 in0.5 mm
09:45 AM 50.4°F10.2°C 46.1°F7.8°C 85% 1.0 mph SSE1.6 kmh SSE 6.0 mph9.7 kmh 30.11 in1019.6 mb 0.00 in0.0 mm 0.00 in0.0 mm 0.02 in0.5 mm
09:47 AM 50.5°F10.3°C 46.2°F7.9°C 85% 3.0 mph SE4.8 kmh SE 7.0 mph11.3 kmh 30.11 in1019.6 mb 0.00 in0.0 mm 0.00 in0.0 mm 0.02 in0.5 mm
09:49 AM 50.5°F10.3°C 45.8°F7.7°C 84% 4.0 mph S6.4 kmh S 7.0 mph11.3 kmh 30.11 in1019.6 mb 0.00 in0.0 mm 0.00 in0.0 mm 0.02 in0.5 mm
09:51 AM 50.7°F10.4°C 46.0°F7.8°C 84% 1.0 mph SSE1.6 kmh SSE 10.0 mph16.1 kmh 30.11 in1019.6 mb 0.00 in0.0 mm 0.00 in0.0 mm 0.02 in0.5 mm
09:53 AM 50.8°F10.4°C 45.8°F7.7°C 83% 2.0 mph SW3.2 kmh SW 10.0 mph16.1 kmh 30.11 in1019.6 mb 0.00 in0.0 mm 0.00 in0.0 mm 0.02 in0.5 mm
09:55 AM 50.9°F10.5°C 46.2°F7.9°C 84% 2.0 mph SE3.2 kmh SE 10.0 mph16.1 kmh 30.11 in1019.6 mb 0.00 in0.0 mm 0.00 in0.0 mm 0.02 in0.5 mm
09:57 AM 51.0°F10.6°C 45.7°F7.6°C 82% 9.0 mph SSE14.5 kmh SSE 10.0 mph16.1 kmh 30.12 in1020.0 mb 0.00 in0.0 mm 0.00 in0.0 mm 0.02 in0.5 mm
09:59 AM 51.2°F10.7°C 46.2°F7.9°C 83% 2.0 mph SE3.2 kmh SE 10.0 mph16.1 kmh 30.11 in1019.6 mb 0.00 in0.0 mm 0.00 in0.0 mm 0.02 in0.5 mm
10:01 AM 51.3°F10.7°C 46.0°F7.8°C 82% 3.0 mph S4.8 kmh S 10.0 mph16.1 kmh 30.11 in1019.6 mb 0.00 in0.0 mm 0.00 in0.0 mm 0.02 in0.5 mm
10:03 AM 51.4°F10.8°C 46.1°F7.8°C 82% 3.0 mph S4.8 kmh S 10.0 mph16.1 kmh 30.11 in1019.6 mb 0.00 in0.0 mm 0.00 in0.0 mm 0.02 in0.5 mm
10:05 AM 51.5°F10.8°C 45.9°F7.7°C 81% 1.0 mph SSW1.6 kmh SSW 10.0 mph16.1 kmh 30.11 in1019.6 mb 0.00 in0.0 mm 0.00 in0.0 mm 0.02 in0.5 mm
10:07 AM 51.7°F10.9°C 46.4°F8.0°C 82% 3.0 mph SE4.8 kmh SE 10.0 mph16.1 kmh 30.11 in1019.6 mb 0.00 in0.0 mm 0.00 in0.0 mm 0.02 in0.5 mm
10:09 AM 51.8°F11.0°C 45.8°F7.7°C 80% 4.0 mph S6.4 kmh S 10.0 mph16.1 kmh 30.11 in1019.6 mb 0.00 in0.0 mm 0.00 in0.0 mm 0.02 in0.5 mm
10:11 AM 52.0°F11.1°C 46.4°F8.0°C 81% 2.0 mph SSW3.2 kmh SSW 10.0 mph16.1 kmh 30.11 in1019.6 mb 0.00 in0.0 mm 0.00 in0.0 mm 0.02 in0.5 mm
10:13 AM 52.1°F11.2°C 46.1°F7.8°C 80% 3.0 mph S4.8 kmh S 10.0 mph16.1 kmh 30.11 in1019.6 mb 0.00 in0.0 mm 0.00 in0.0 mm 0.02 in0.5 mm
10:15 AM 52.3°F11.3°C 46.0°F7.8°C 79% 4.0 mph S6.4 kmh S 12.0 mph19.3 kmh 30.11 in1019.6 mb 0.00 in0.0 mm 0.00 in0.0 mm 0.02 in0.5 mm
10:17 AM 52.4°F11.3°C 46.1°F7.8°C 79% 9.0 mph SSW14.5 kmh SSW 13.0 mph20.9 kmh 30.11 in1019.6 mb 0.00 in0.0 mm 0.00 in0.0 mm 0.02 in0.5 mm
10:19 AM 52.6°F11.4°C 45.9°F7.7°C 78% 4.0 mph S6.4 kmh S 13.0 mph20.9 kmh 30.11 in1019.6 mb 0.00 in0.0 mm 0.00 in0.0 mm 0.02 in0.5 mm
10:21 AM 52.7°F11.5°C 46.0°F7.8°C 78% 2.0 mph S3.2 kmh S 15.0 mph24.1 kmh 30.11 in1019.6 mb 0.00 in0.0 mm 0.00 in0.0 mm 0.02 in0.5 mm
10:23 AM 52.9°F11.6°C 46.2°F7.9°C 78% 7.0 mph E11.3 kmh E 15.0 mph24.1 kmh 30.11 in1019.6 mb 0.00 in0.0 mm 0.00 in0.0 mm 0.02 in0.5 mm
10:25 AM 53.0°F11.7°C 46.3°F7.9°C 78% 3.0 mph S4.8 kmh S 15.0 mph24.1 kmh 30.11 in1019.6 mb 0.00 in0.0 mm 0.00 in0.0 mm 0.02 in0.5 mm
10:27 AM 53.2°F11.8°C 46.5°F8.1°C 78% 4.0 mph SSE6.4 kmh SSE 18.0 mph29.0 kmh 30.11 in1019.6 mb 0.00 in0.0 mm 0.00 in0.0 mm 0.02 in0.5 mm
10:29 AM 53.3°F11.8°C 47.0°F8.3°C 79% 2.0 mph SE3.2 kmh SE 18.0 mph29.0 kmh 30.11 in1019.6 mb 0.00 in0.0 mm 0.00 in0.0 mm 0.02 in0.5 mm
10:31 AM 53.4°F11.9°C 47.1°F8.4°C 79% 2.0 mph SSW3.2 kmh SSW 18.0 mph29.0 kmh 30.11 in1019.6 mb 0.00 in0.0 mm 0.00 in0.0 mm 0.02 in0.5 mm
10:33 AM 53.5°F11.9°C 47.1°F8.4°C 79% 2.0 mph SW3.2 kmh SW 18.0 mph29.0 kmh 30.11 in1019.6 mb 0.00 in0.0 mm 0.00 in0.0 mm 0.02 in0.5 mm
10:35 AM 53.6°F12.0°C 47.2°F8.4°C 79% 3.0 mph S4.8 kmh S 18.0 mph29.0 kmh 30.11 in1019.6 mb 0.00 in0.0 mm 0.00 in0.0 mm 0.02 in0.5 mm
10:37 AM 53.6°F12.0°C 47.2°F8.4°C 79% 8.0 mph SSE12.9 kmh SSE 18.0 mph29.0 kmh 30.11 in1019.6 mb 0.00 in0.0 mm 0.00 in0.0 mm 0.02 in0.5 mm
10:39 AM 53.6°F12.0°C 47.6°F8.7°C 80% 1.0 mph SSW1.6 kmh SSW 18.0 mph29.0 kmh 30.11 in1019.6 mb 0.00 in0.0 mm 0.00 in0.0 mm 0.02 in0.5 mm
10:41 AM 53.6°F12.0°C 47.6°F8.7°C 80% 2.0 mph SW3.2 kmh SW 18.0 mph29.0 kmh 30.11 in1019.6 mb 0.00 in0.0 mm 0.00 in0.0 mm 0.02 in0.5 mm
10:43 AM 53.5°F11.9°C 47.8°F8.8°C 81% 5.0 mph SSW8.0 kmh SSW 18.0 mph29.0 kmh 30.11 in1019.6 mb 0.00 in0.0 mm 0.00 in0.0 mm 0.02 in0.5 mm
10:45 AM 53.5°F11.9°C 47.8°F8.8°C 81% 3.0 mph S4.8 kmh S 18.0 mph29.0 kmh 30.11 in1019.6 mb 0.00 in0.0 mm 0.00 in0.0 mm 0.02 in0.5 mm
10:47 AM 53.4°F11.9°C 47.7°F8.7°C 81% 4.0 mph NW6.4 kmh NW 14.0 mph22.5 kmh 30.11 in1019.6 mb 0.00 in0.0 mm 0.00 in0.0 mm 0.02 in0.5 mm
10:49 AM 53.4°F11.9°C 48.0°F8.9°C 82% 3.0 mph SSE4.8 kmh SSE 14.0 mph22.5 kmh 30.11 in1019.6 mb 0.00 in0.0 mm 0.00 in0.0 mm 0.02 in0.5 mm
10:51 AM 53.4°F11.9°C 48.0°F8.9°C 82% 7.0 mph S11.3 kmh S 14.0 mph22.5 kmh 30.11 in1019.6 mb 0.00 in0.0 mm 0.00 in0.0 mm 0.02 in0.5 mm
10:53 AM 53.4°F11.9°C 48.0°F8.9°C 82% 1.0 mph SE1.6 kmh SE 14.0 mph22.5 kmh 30.11 in1019.6 mb 0.00 in0.0 mm 0.00 in0.0 mm 0.02 in0.5 mm
10:55 AM 53.4°F11.9°C 48.4°F9.1°C 83% 1.0 mph SW1.6 kmh SW 14.0 mph22.5 kmh 30.11 in1019.6 mb 0.00 in0.0 mm 0.00 in0.0 mm 0.02 in0.5 mm
10:57 AM 53.5°F11.9°C 48.1°F8.9°C 82% 3.0 mph S4.8 kmh S 9.0 mph14.5 kmh 30.11 in1019.6 mb 0.00 in0.0 mm 0.00 in0.0 mm 0.02 in0.5 mm
10:59 AM 53.5°F11.9°C 48.5°F9.2°C 83% 1.0 mph SSW1.6 kmh SSW 9.0 mph14.5 kmh 30.10 in1019.3 mb 0.00 in0.0 mm 0.00 in0.0 mm 0.02 in0.5 mm
11:01 AM 53.6°F12.0°C 48.2°F9.0°C 82% 3.0 mph SSW4.8 kmh SSW 9.0 mph14.5 kmh 30.10 in1019.3 mb 0.00 in0.0 mm 0.00 in0.0 mm 0.02 in0.5 mm
11:03 AM 53.7°F12.1°C 48.3°F9.1°C 82% 2.0 mph WSW3.2 kmh WSW 9.0 mph14.5 kmh 30.10 in1019.3 mb 0.00 in0.0 mm 0.00 in0.0 mm 0.02 in0.5 mm
11:05 AM 53.7°F12.1°C 48.3°F9.1°C 82% Calm Calm 9.0 mph14.5 kmh 30.10 in1019.3 mb 0.00 in0.0 mm 0.00 in0.0 mm 0.02 in0.5 mm
11:07 AM 53.8°F12.1°C 48.4°F9.1°C 82% 2.0 mph S3.2 kmh S 7.0 mph11.3 kmh 30.09 in1019.0 mb 0.00 in0.0 mm 0.00 in0.0 mm 0.02 in0.5 mm
11:09 AM 53.8°F12.1°C 48.4°F9.1°C 82% 4.0 mph S6.4 kmh S 7.0 mph11.3 kmh 30.09 in1019.0 mb 0.00 in0.0 mm 0.00 in0.0 mm 0.02 in0.5 mm
11:11 AM 53.9°F12.2°C 48.5°F9.2°C 82% 3.0 mph SSW4.8 kmh SSW 7.0 mph11.3 kmh 30.09 in1019.0 mb 0.00 in0.0 mm 0.00 in0.0 mm 0.02 in0.5 mm
11:13 AM 54.0°F12.2°C 48.3°F9.1°C 81% 3.0 mph S4.8 kmh S 7.0 mph11.3 kmh 30.09 in1019.0 mb 0.00 in0.0 mm 0.00 in0.0 mm 0.02 in0.5 mm
11:15 AM 54.1°F12.3°C 48.4°F9.1°C 81% 3.0 mph SSW4.8 kmh SSW 7.0 mph11.3 kmh 30.09 in1019.0 mb 0.00 in0.0 mm 0.00 in0.0 mm 0.02 in0.5 mm
11:17 AM 54.1°F12.3°C 48.1°F8.9°C 80% 2.0 mph SSE3.2 kmh SSE 7.0 mph11.3 kmh 30.09 in1019.0 mb 0.00 in0.0 mm 0.00 in0.0 mm 0.02 in0.5 mm
11:19 AM 54.1°F12.3°C 48.4°F9.1°C 81% 5.0 mph SSE8.0 kmh SSE 7.0 mph11.3 kmh 30.09 in1019.0 mb 0.00 in0.0 mm 0.00 in0.0 mm 0.02 in0.5 mm
11:21 AM 54.2°F12.3°C 48.2°F9.0°C 80% 1.0 mph S1.6 kmh S 7.0 mph11.3 kmh 30.09 in1019.0 mb 0.00 in0.0 mm 0.00 in0.0 mm 0.02 in0.5 mm
11:23 AM 54.3°F12.4°C 48.6°F9.2°C 81% 3.0 mph NE4.8 kmh NE 7.0 mph11.3 kmh 30.08 in1018.6 mb 0.00 in0.0 mm 0.00 in0.0 mm 0.02 in0.5 mm
11:25 AM 54.4°F12.4°C 48.4°F9.1°C 80% 5.0 mph SSE8.0 kmh SSE 7.0 mph11.3 kmh 30.08 in1018.6 mb 0.00 in0.0 mm 0.00 in0.0 mm 0.02 in0.5 mm
11:27 AM 54.5°F12.5°C 47.8°F8.8°C 78% 6.0 mph ESE9.7 kmh ESE 7.0 mph11.3 kmh 30.08 in1018.6 mb 0.00 in0.0 mm 0.00 in0.0 mm 0.02 in0.5 mm
11:29 AM 54.6°F12.6°C 47.9°F8.8°C 78% 2.0 mph SSE3.2 kmh SSE 7.0 mph11.3 kmh 30.07 in1018.3 mb 0.00 in0.0 mm 0.00 in0.0 mm 0.02 in0.5 mm
11:31 AM 54.7°F12.6°C 48.3°F9.1°C 79% 2.0 mph SE3.2 kmh SE 7.0 mph11.3 kmh 30.07 in1018.3 mb 0.00 in0.0 mm 0.00 in0.0 mm 0.02 in0.5 mm
11:33 AM 54.8°F12.7°C 48.1°F8.9°C 78% 7.0 mph SE11.3 kmh SE 13.0 mph20.9 kmh 30.07 in1018.3 mb 0.00 in0.0 mm 0.00 in0.0 mm 0.02 in0.5 mm
11:35 AM 54.8°F12.7°C 47.4°F8.6°C 76% 2.0 mph S3.2 kmh S 13.0 mph20.9 kmh 30.07 in1018.3 mb 0.00 in0.0 mm 0.00 in0.0 mm 0.02 in0.5 mm
11:37 AM 55.0°F12.8°C 48.3°F9.1°C 78% 4.0 mph SE6.4 kmh SE 13.0 mph20.9 kmh 30.06 in1017.9 mb 0.00 in0.0 mm 0.00 in0.0 mm 0.02 in0.5 mm
11:39 AM 55.2°F12.9°C 48.1°F8.9°C 77% 3.0 mph SE4.8 kmh SE 13.0 mph20.9 kmh 30.06 in1017.9 mb 0.00 in0.0 mm 0.00 in0.0 mm 0.02 in0.5 mm
11:41 AM 55.3°F12.9°C 47.9°F8.8°C 76% 3.0 mph S4.8 kmh S 13.0 mph20.9 kmh 30.06 in1017.9 mb 0.00 in0.0 mm 0.00 in0.0 mm 0.02 in0.5 mm
11:43 AM 55.5°F13.1°C 47.7°F8.7°C 75% 2.0 mph S3.2 kmh S 13.0 mph20.9 kmh 30.06 in1017.9 mb 0.00 in0.0 mm 0.00 in0.0 mm 0.02 in0.5 mm
11:45 AM 55.6°F13.1°C 47.8°F8.8°C 75% 4.0 mph SE6.4 kmh SE 13.0 mph20.9 kmh 30.06 in1017.9 mb 0.00 in0.0 mm 0.00 in0.0 mm 0.02 in0.5 mm
11:47 AM 55.8°F13.2°C 48.0°F8.9°C 75% 5.0 mph SSE8.0 kmh SSE 13.0 mph20.9 kmh 30.05 in1017.6 mb 0.00 in0.0 mm 0.00 in0.0 mm 0.02 in0.5 mm
11:49 AM 55.9°F13.3°C 47.7°F8.7°C 74% 2.0 mph SW3.2 kmh SW 13.0 mph20.9 kmh 30.05 in1017.6 mb 0.00 in0.0 mm 0.00 in0.0 mm 0.02 in0.5 mm
11:51 AM 56.1°F13.4°C 47.9°F8.8°C 74% 6.0 mph SW9.7 kmh SW 13.0 mph20.9 kmh 30.05 in1017.6 mb 0.00 in0.0 mm 0.00 in0.0 mm 0.02 in0.5 mm
11:53 AM 56.3°F13.5°C 48.1°F8.9°C 74% 4.0 mph S6.4 kmh S 11.0 mph17.7 kmh 30.05 in1017.6 mb 0.00 in0.0 mm 0.00 in0.0 mm 0.02 in0.5 mm
11:55 AM 56.4°F13.6°C 48.2°F9.0°C 74% 1.0 mph S1.6 kmh S 11.0 mph17.7 kmh 30.05 in1017.6 mb 0.00 in0.0 mm 0.00 in0.0 mm 0.02 in0.5 mm
11:57 AM 56.6°F13.7°C 48.4°F9.1°C 74% 2.0 mph S3.2 kmh S 11.0 mph17.7 kmh 30.05 in1017.6 mb 0.00 in0.0 mm 0.00 in0.0 mm 0.02 in0.5 mm
11:59 AM 56.7°F13.7°C 48.1°F8.9°C 73% 2.0 mph S3.2 kmh S 11.0 mph17.7 kmh 30.05 in1017.6 mb 0.00 in0.0 mm 0.00 in0.0 mm 0.02 in0.5 mm
12:01 PM 56.9°F13.8°C 48.3°F9.1°C 73% 8.0 mph SW12.9 kmh SW 11.0 mph17.7 kmh 30.05 in1017.6 mb 0.00 in0.0 mm 0.00 in0.0 mm 0.02 in0.5 mm
12:03 PM 56.9°F13.8°C 48.3°F9.1°C 73% 3.0 mph S4.8 kmh S 10.0 mph16.1 kmh 30.05 in1017.6 mb 0.00 in0.0 mm 0.00 in0.0 mm 0.02 in0.5 mm
12:05 PM 57.1°F13.9°C 48.5°F9.2°C 73% 3.0 mph SSW4.8 kmh SSW 10.0 mph16.1 kmh 30.04 in1017.3 mb 0.00 in0.0 mm 0.00 in0.0 mm 0.02 in0.5 mm
12:07 PM 57.2°F14.0°C 48.6°F9.2°C 73% 2.0 mph SSW3.2 kmh SSW 10.0 mph16.1 kmh 30.04 in1017.3 mb 0.00 in0.0 mm 0.00 in0.0 mm 0.02 in0.5 mm
12:09 PM 57.3°F14.1°C 48.3°F9.1°C 72% 4.0 mph SSE6.4 kmh SSE 10.0 mph16.1 kmh 30.04 in1017.3 mb 0.00 in0.0 mm 0.00 in0.0 mm 0.02 in0.5 mm
12:11 PM 57.4°F14.1°C 48.4°F9.1°C 72% 1.0 mph SW1.6 kmh SW 10.0 mph16.1 kmh 30.04 in1017.3 mb 0.00 in0.0 mm 0.00 in0.0 mm 0.02 in0.5 mm
12:13 PM 57.5°F14.2°C 48.9°F9.4°C 73% Calm Calm 7.0 mph11.3 kmh 30.04 in1017.3 mb 0.00 in0.0 mm 0.00 in0.0 mm 0.02 in0.5 mm
12:15 PM 57.6°F14.2°C 49.0°F9.4°C 73% 3.0 mph SE4.8 kmh SE 7.0 mph11.3 kmh 30.04 in1017.3 mb 0.00 in0.0 mm 0.00 in0.0 mm 0.02 in0.5 mm
12:17 PM 57.7°F14.3°C 48.7°F9.3°C 72% 3.0 mph S4.8 kmh S 7.0 mph11.3 kmh 30.03 in1016.9 mb 0.00 in0.0 mm 0.00 in0.0 mm 0.02 in0.5 mm
12:19 PM 57.8°F14.3°C 48.8°F9.3°C 72% 3.0 mph S4.8 kmh S 7.0 mph11.3 kmh 30.04 in1017.3 mb 0.00 in0.0 mm 0.00 in0.0 mm 0.02 in0.5 mm
12:21 PM 57.8°F14.3°C 48.5°F9.2°C 71% 4.0 mph S6.4 kmh S 7.0 mph11.3 kmh 30.03 in1016.9 mb 0.00 in0.0 mm 0.00 in0.0 mm 0.02 in0.5 mm
12:23 PM 57.8°F14.3°C 48.8°F9.3°C 72% 1.0 mph SE1.6 kmh SE 6.0 mph9.7 kmh 30.03 in1016.9 mb 0.00 in0.0 mm 0.00 in0.0 mm 0.02 in0.5 mm
12:25 PM 57.8°F14.3°C 48.8°F9.3°C 72% 6.0 mph W9.7 kmh W 6.0 mph9.7 kmh 30.03 in1016.9 mb 0.00 in0.0 mm 0.00 in0.0 mm 0.02 in0.5 mm
12:27 PM 57.8°F14.3°C 49.2°F9.6°C 73% 3.0 mph SE4.8 kmh SE 7.0 mph11.3 kmh 30.03 in1016.9 mb 0.00 in0.0 mm 0.00 in0.0 mm 0.02 in0.5 mm
12:29 PM 57.9°F14.4°C 48.9°F9.4°C 72% 4.0 mph SSW6.4 kmh SSW 7.0 mph11.3 kmh 30.03 in1016.9 mb 0.00 in0.0 mm 0.00 in0.0 mm 0.02 in0.5 mm
12:31 PM 57.9°F14.4°C 49.3°F9.6°C 73% Calm Calm 7.0 mph11.3 kmh 30.03 in1016.9 mb 0.00 in0.0 mm 0.00 in0.0 mm 0.02 in0.5 mm
12:33 PM 58.0°F14.4°C 49.0°F9.4°C 72% 1.0 mph S1.6 kmh S 7.0 mph11.3 kmh 30.03 in1016.9 mb 0.00 in0.0 mm 0.00 in0.0 mm 0.02 in0.5 mm
12:35 PM 58.1°F14.5°C 49.5°F9.7°C 73% 2.0 mph SW3.2 kmh SW 7.0 mph11.3 kmh 30.02 in1016.6 mb 0.00 in0.0 mm 0.00 in0.0 mm 0.02 in0.5 mm
12:37 PM 58.2°F14.6°C 49.2°F9.6°C 72% 2.0 mph S3.2 kmh S 7.0 mph11.3 kmh 30.02 in1016.6 mb 0.00 in0.0 mm 0.00 in0.0 mm 0.02 in0.5 mm
12:39 PM 58.2°F14.6°C 49.2°F9.6°C 72% 4.0 mph WSW6.4 kmh WSW 8.0 mph12.9 kmh 30.02 in1016.6 mb 0.00 in0.0 mm 0.00 in0.0 mm 0.02 in0.5 mm
12:41 PM 58.4°F14.7°C 49.4°F9.7°C 72% 1.0 mph NNW1.6 kmh NNW 8.0 mph12.9 kmh 30.02 in1016.6 mb 0.00 in0.0 mm 0.00 in0.0 mm 0.02 in0.5 mm
12:43 PM 58.4°F14.7°C 49.8°F9.9°C 73% 2.0 mph SSW3.2 kmh SSW 8.0 mph12.9 kmh 30.01 in1016.3 mb 0.00 in0.0 mm 0.00 in0.0 mm 0.02 in0.5 mm
12:45 PM 58.5°F14.7°C 49.9°F9.9°C 73% 2.0 mph SW3.2 kmh SW 8.0 mph12.9 kmh 30.02 in1016.6 mb 0.00 in0.0 mm 0.00 in0.0 mm 0.02 in0.5 mm
12:47 PM 58.6°F14.8°C 50.0°F10.0°C 73% 1.0 mph SW1.6 kmh SW 8.0 mph12.9 kmh 30.01 in1016.3 mb 0.00 in0.0 mm 0.00 in0.0 mm 0.02 in0.5 mm
12:49 PM 58.6°F14.8°C 50.0°F10.0°C 73% 2.0 mph S3.2 kmh S 8.0 mph12.9 kmh 30.01 in1016.3 mb 0.00 in0.0 mm 0.00 in0.0 mm 0.02 in0.5 mm
12:51 PM 58.6°F14.8°C 50.0°F10.0°C 73% 1.0 mph SW1.6 kmh SW 8.0 mph12.9 kmh 30.01 in1016.3 mb 0.00 in0.0 mm 0.00 in0.0 mm 0.02 in0.5 mm
12:53 PM 58.7°F14.8°C 50.4°F10.2°C 74% 3.0 mph SW4.8 kmh SW 10.0 mph16.1 kmh 30.01 in1016.3 mb 0.00 in0.0 mm 0.00 in0.0 mm 0.02 in0.5 mm
12:55 PM 58.7°F14.8°C 50.8°F10.4°C 75% 1.0 mph SSE1.6 kmh SSE 10.0 mph16.1 kmh 30.01 in1016.3 mb 0.00 in0.0 mm 0.00 in0.0 mm 0.02 in0.5 mm
12:57 PM 58.7°F14.8°C 51.2°F10.7°C 76% 3.0 mph S4.8 kmh S 10.0 mph16.1 kmh 30.01 in1016.3 mb 0.00 in0.0 mm 0.00 in0.0 mm 0.02 in0.5 mm
12:59 PM 58.6°F14.8°C 51.1°F10.6°C 76% Calm Calm 10.0 mph16.1 kmh 30.01 in1016.3 mb 0.00 in0.0 mm 0.00 in0.0 mm 0.02 in0.5 mm
01:01 PM 58.6°F14.8°C 51.4°F10.8°C 77% 1.0 mph S1.6 kmh S 10.0 mph16.1 kmh 30.00 in1015.9 mb 0.00 in0.0 mm 0.00 in0.0 mm 0.02 in0.5 mm
01:03 PM 58.5°F14.7°C 51.7°F10.9°C 78% 1.0 mph S1.6 kmh S 10.0 mph16.1 kmh 30.00 in1015.9 mb 0.00 in0.0 mm 0.00 in0.0 mm 0.02 in0.5 mm
01:05 PM 58.3°F14.6°C 51.8°F11.0°C 79% 1.0 mph S1.6 kmh S 10.0 mph16.1 kmh 30.00 in1015.9 mb 0.00 in0.0 mm 0.00 in0.0 mm 0.02 in0.5 mm
01:07 PM 58.2°F14.6°C 52.1°F11.2°C 80% 1.0 mph S1.6 kmh S 10.0 mph16.1 kmh 30.00 in1015.9 mb 0.00 in0.0 mm 0.00 in0.0 mm 0.02 in0.5 mm
01:09 PM 58.0°F14.4°C 51.9°F11.1°C 80% 2.0 mph SSW3.2 kmh SSW 10.0 mph16.1 kmh 30.00 in1015.9 mb 0.00 in0.0 mm 0.00 in0.0 mm 0.02 in0.5 mm
01:11 PM 57.9°F14.4°C 51.8°F11.0°C 80% 1.0 mph SW1.6 kmh SW 10.0 mph16.1 kmh 30.00 in1015.9 mb 0.00 in0.0 mm 0.00 in0.0 mm 0.03 in0.8 mm
01:13 PM 57.7°F14.3°C 51.9°F11.1°C 81% 2.0 mph SSE3.2 kmh SSE 8.0 mph12.9 kmh 30.00 in1015.9 mb 0.17 in4.3 mm 5.10 in129.5 mm 0.04 in1.0 mm
01:15 PM 57.6°F14.2°C 51.8°F11.0°C 81% 3.0 mph S4.8 kmh S 8.0 mph12.9 kmh 29.99 in1015.6 mb 0.17 in4.3 mm 0.00 in0.0 mm 0.04 in1.0 mm
01:17 PM 57.5°F14.2°C 51.7°F10.9°C 81% Calm Calm 8.0 mph12.9 kmh 29.99 in1015.6 mb 0.12 in3.0 mm 0.00 in0.0 mm 0.04 in1.0 mm
01:19 PM 57.5°F14.2°C 51.7°F10.9°C 81% 1.0 mph S1.6 kmh S 8.0 mph12.9 kmh 29.98 in1015.2 mb 0.09 in2.3 mm 0.00 in0.0 mm 0.04 in1.0 mm
01:21 PM 57.4°F14.1°C 51.9°F11.1°C 82% 1.0 mph S1.6 kmh S 8.0 mph12.9 kmh 29.98 in1015.2 mb 0.07 in1.8 mm 0.00 in0.0 mm 0.04 in1.0 mm
01:23 PM 57.2°F14.0°C 52.1°F11.2°C 83% 1.0 mph ENE1.6 kmh ENE 8.0 mph12.9 kmh 29.98 in1015.2 mb 0.06 in1.5 mm 0.00 in0.0 mm 0.04 in1.0 mm
01:25 PM 57.2°F14.0°C 52.1°F11.2°C 83% 2.0 mph S3.2 kmh S 8.0 mph12.9 kmh 29.98 in1015.2 mb 0.05 in1.3 mm 0.00 in0.0 mm 0.04 in1.0 mm
01:27 PM 57.1°F13.9°C 52.0°F11.1°C 83% 2.0 mph S3.2 kmh S 8.0 mph12.9 kmh 29.98 in1015.2 mb 0.04 in1.0 mm 0.00 in0.0 mm 0.04 in1.0 mm
01:29 PM 56.9°F13.8°C 51.8°F11.0°C 83% 2.0 mph SE3.2 kmh SE 8.0 mph12.9 kmh 29.97 in1014.9 mb 0.04 in1.0 mm 0.00 in0.0 mm 0.04 in1.0 mm
01:31 PM 56.9°F13.8°C 52.1°F11.2°C 84% 1.0 mph SE1.6 kmh SE 8.0 mph12.9 kmh 29.97 in1014.9 mb 0.00 in0.0 mm 0.00 in0.0 mm 0.04 in1.0 mm
01:33 PM 56.8°F13.8°C 52.0°F11.1°C 84% 1.0 mph SE1.6 kmh SE 4.0 mph6.4 kmh 29.97 in1014.9 mb 0.00 in0.0 mm 0.00 in0.0 mm 0.04 in1.0 mm
01:35 PM 56.7°F13.7°C 51.9°F11.1°C 84% 1.0 mph SW1.6 kmh SW 4.0 mph6.4 kmh 29.97 in1014.9 mb 0.00 in0.0 mm 0.00 in0.0 mm 0.04 in1.0 mm
01:37 PM 56.7°F13.7°C 51.9°F11.1°C 84% Calm Calm 4.0 mph6.4 kmh 29.97 in1014.9 mb 0.00 in0.0 mm 0.00 in0.0 mm 0.04 in1.0 mm
01:39 PM 56.7°F13.7°C 51.9°F11.1°C 84% Calm Calm 4.0 mph6.4 kmh 29.97 in1014.9 mb 0.00 in0.0 mm 0.00 in0.0 mm 0.04 in1.0 mm
01:41 PM 56.6°F13.7°C 52.1°F11.2°C 85% 1.0 mph SW1.6 kmh SW 4.0 mph6.4 kmh 29.97 in1014.9 mb 0.00 in0.0 mm 0.00 in0.0 mm 0.04 in1.0 mm
01:43 PM 56.6°F13.7°C 52.1°F11.2°C 85% Calm Calm -- 29.97 in1014.9 mb 0.00 in0.0 mm 0.00 in0.0 mm 0.04 in1.0 mm
01:45 PM 56.6°F13.7°C 52.1°F11.2°C 85% 1.0 mph SW1.6 kmh SW 1.0 mph1.6 kmh 29.98 in1015.2 mb 0.00 in0.0 mm 0.00 in0.0 mm 0.04 in1.0 mm
01:47 PM 56.6°F13.7°C 52.1°F11.2°C 85% Calm Calm -- 29.98 in1015.2 mb 0.00 in0.0 mm 0.00 in0.0 mm 0.04 in1.0 mm
01:49 PM 56.6°F13.7°C 52.5°F11.4°C 86% Calm Calm 1.0 mph1.6 kmh 29.98 in1015.2 mb 0.00 in0.0 mm 0.00 in0.0 mm 0.04 in1.0 mm
01:51 PM 56.6°F13.7°C 52.5°F11.4°C 86% Calm Calm -- 29.97 in1014.9 mb 0.00 in0.0 mm 0.00 in0.0 mm 0.04 in1.0 mm
01:53 PM 56.6°F13.7°C 52.5°F11.4°C 86% Calm Calm -- 29.97 in1014.9 mb 0.00 in0.0 mm 0.00 in0.0 mm 0.04 in1.0 mm
01:55 PM 56.6°F13.7°C 52.5°F11.4°C 86% Calm Calm -- 29.98 in1015.2 mb 0.00 in0.0 mm 0.00 in0.0 mm 0.04 in1.0 mm
01:57 PM 56.6°F13.7°C 52.5°F11.4°C 86% Calm Calm -- 29.98 in1015.2 mb 0.00 in0.0 mm 0.00 in0.0 mm 0.04 in1.0 mm
01:59 PM 56.6°F13.7°C 52.5°F11.4°C 86% Calm Calm -- 29.98 in1015.2 mb 0.00 in0.0 mm 0.00 in0.0 mm 0.04 in1.0 mm
02:01 PM 56.6°F13.7°C 52.5°F11.4°C 86% Calm Calm -- 29.98 in1015.2 mb 0.00 in0.0 mm 0.00 in0.0 mm 0.04 in1.0 mm
02:03 PM 56.5°F13.6°C 52.4°F11.3°C 86% Calm Calm 1.0 mph1.6 kmh 29.98 in1015.2 mb 0.00 in0.0 mm 0.00 in0.0 mm 0.05 in1.3 mm
02:05 PM 56.5°F13.6°C 52.4°F11.3°C 86% Calm Calm -- 29.98 in1015.2 mb 0.33 in8.4 mm 9.90 in251.5 mm 0.06 in1.5 mm
02:07 PM 56.5°F13.6°C 52.4°F11.3°C 86% Calm Calm 1.0 mph1.6 kmh 29.98 in1015.2 mb 0.19 in4.8 mm 0.00 in0.0 mm 0.07 in1.8 mm
02:09 PM 56.5°F13.6°C 52.7°F11.5°C 87% Calm Calm -- 29.98 in1015.2 mb 0.19 in4.8 mm 0.00 in0.0 mm 0.07 in1.8 mm
02:11 PM 56.5°F13.6°C 52.7°F11.5°C 87% Calm Calm -- 29.98 in1015.2 mb 0.13 in3.3 mm 0.00 in0.0 mm 0.07 in1.8 mm
02:13 PM 56.6°F13.7°C 52.8°F11.6°C 87% Calm Calm 1.0 mph1.6 kmh 29.98 in1015.2 mb 0.09 in2.3 mm 0.00 in0.0 mm 0.07 in1.8 mm
02:15 PM 56.6°F13.7°C 52.8°F11.6°C 87% Calm Calm -- 29.98 in1015.2 mb 0.07 in1.8 mm 0.00 in0.0 mm 0.07 in1.8 mm
02:17 PM 56.5°F13.6°C 52.7°F11.5°C 87% Calm Calm -- 29.97 in1014.9 mb 0.06 in1.5 mm 0.00 in0.0 mm 0.07 in1.8 mm
02:19 PM 56.5°F13.6°C 52.7°F11.5°C 87% Calm Calm -- 29.97 in1014.9 mb 0.05 in1.3 mm 0.00 in0.0 mm 0.07 in1.8 mm
02:21 PM 56.5°F13.6°C 52.7°F11.5°C 87% Calm Calm -- 29.98 in1015.2 mb 0.04 in1.0 mm 0.00 in0.0 mm 0.07 in1.8 mm
02:23 PM 56.4°F13.6°C 52.6°F11.4°C 87% Calm Calm 1.0 mph1.6 kmh 29.97 in1014.9 mb 0.04 in1.0 mm 0.00 in0.0 mm 0.08 in2.0 mm
02:25 PM 56.4°F13.6°C 52.6°F11.4°C 87% Calm Calm 2.0 mph3.2 kmh 29.97 in1014.9 mb 0.26 in6.6 mm 6.60 in167.6 mm 0.08 in2.0 mm
02:27 PM 56.3°F13.5°C 52.5°F11.4°C 87% Calm Calm 2.0 mph3.2 kmh 29.97 in1014.9 mb 0.50 in12.7 mm 7.20 in182.9 mm 0.10 in2.5 mm
02:29 PM 56.2°F13.4°C 52.4°F11.3°C 87% Calm Calm 2.0 mph3.2 kmh 29.97 in1014.9 mb 0.20 in5.1 mm 0.00 in0.0 mm 0.10 in2.5 mm
02:31 PM 56.2°F13.4°C 52.4°F11.3°C 87% Calm Calm 1.0 mph1.6 kmh 29.97 in1014.9 mb 0.12 in3.0 mm 0.00 in0.0 mm 0.10 in2.5 mm
02:33 PM 56.1°F13.4°C 52.3°F11.3°C 87% Calm Calm -- 29.97 in1014.9 mb 0.10 in2.5 mm 0.00 in0.0 mm 0.11 in2.8 mm
02:35 PM 56.0°F13.3°C 52.5°F11.4°C 88% Calm Calm -- 29.97 in1014.9 mb 0.10 in2.5 mm 0.00 in0.0 mm 0.11 in2.8 mm
02:37 PM 55.9°F13.3°C 52.4°F11.3°C 88% Calm Calm 2.0 mph3.2 kmh 29.96 in1014.6 mb 0.17 in4.3 mm 2.10 in53.3 mm 0.12 in3.0 mm
02:39 PM 55.8°F13.2°C 52.0°F11.1°C 87% Calm Calm 2.0 mph3.2 kmh 29.96 in1014.6 mb 0.17 in4.3 mm 0.00 in0.0 mm 0.12 in3.0 mm
02:41 PM 55.7°F13.2°C 52.2°F11.2°C 88% Calm Calm 2.0 mph3.2 kmh 29.96 in1014.6 mb 0.13 in3.3 mm 0.00 in0.0 mm 0.13 in3.3 mm
02:43 PM 55.7°F13.2°C 52.2°F11.2°C 88% 1.0 mph SW1.6 kmh SW 2.0 mph3.2 kmh 29.96 in1014.6 mb 0.27 in6.9 mm 4.20 in106.7 mm 0.14 in3.6 mm
02:45 PM 55.6°F13.1°C 52.1°F11.2°C 88% Calm Calm 2.0 mph3.2 kmh 29.96 in1014.6 mb 0.21 in5.3 mm 0.00 in0.0 mm 0.14 in3.6 mm
02:47 PM 55.5°F13.1°C 52.0°F11.1°C 88% 2.0 mph SW3.2 kmh SW 2.0 mph3.2 kmh 29.96 in1014.6 mb 0.13 in3.3 mm 0.00 in0.0 mm 0.14 in3.6 mm
02:49 PM 55.4°F13.0°C 51.9°F11.1°C 88% 1.0 mph S1.6 kmh S 3.0 mph4.8 kmh 29.95 in1014.2 mb 0.24 in6.1 mm 3.30 in83.8 mm 0.15 in3.8 mm
02:51 PM 55.3°F12.9°C 51.8°F11.0°C 88% Calm Calm 3.0 mph4.8 kmh 29.95 in1014.2 mb 0.24 in6.1 mm 0.00 in0.0 mm 0.16 in4.1 mm
02:53 PM 55.3°F12.9°C 51.8°F11.0°C 88% Calm Calm 3.0 mph4.8 kmh 29.96 in1014.6 mb 0.15 in3.8 mm 0.00 in0.0 mm 0.16 in4.1 mm
02:55 PM 55.3°F12.9°C 52.1°F11.2°C 89% Calm Calm 3.0 mph4.8 kmh 29.96 in1014.6 mb 0.14 in3.6 mm 0.00 in0.0 mm 0.17 in4.3 mm
02:57 PM 55.2°F12.9°C 52.0°F11.1°C 89% 1.0 mph SW1.6 kmh SW 1.0 mph1.6 kmh 29.96 in1014.6 mb 0.17 in4.3 mm 0.90 in22.9 mm 0.17 in4.3 mm
02:59 PM 55.2°F12.9°C 52.0°F11.1°C 89% 1.0 mph SSW1.6 kmh SSW 3.0 mph4.8 kmh 29.96 in1014.6 mb 0.17 in4.3 mm 0.00 in0.0 mm 0.18 in4.6 mm
03:01 PM 55.2°F12.9°C 52.0°F11.1°C 89% 1.0 mph SW1.6 kmh SW 3.0 mph4.8 kmh 29.96 in1014.6 mb 0.15 in3.8 mm 0.00 in0.0 mm 0.18 in4.6 mm
03:03 PM 55.2°F12.9°C 52.0°F11.1°C 89% 1.0 mph S1.6 kmh S 4.0 mph6.4 kmh 29.96 in1014.6 mb 0.10 in2.5 mm 0.00 in0.0 mm 0.18 in4.6 mm
03:05 PM 55.1°F12.8°C 51.9°F11.1°C 89% Calm Calm 4.0 mph6.4 kmh 29.96 in1014.6 mb 0.07 in1.8 mm 0.00 in0.0 mm 0.18 in4.6 mm
03:07 PM 55.1°F12.8°C 51.9°F11.1°C 89% Calm Calm 4.0 mph6.4 kmh 29.96 in1014.6 mb 0.07 in1.8 mm 0.00 in0.0 mm 0.19 in4.8 mm
03:09 PM 55.1°F12.8°C 51.9°F11.1°C 89% Calm Calm 4.0 mph6.4 kmh 29.96 in1014.6 mb 0.07 in1.8 mm 0.00 in0.0 mm 0.19 in4.8 mm
03:11 PM 55.1°F12.8°C 51.9°F11.1°C 89% 1.0 mph SSW1.6 kmh SSW 5.0 mph8.0 kmh 29.96 in1014.6 mb 0.11 in2.8 mm 1.20 in30.5 mm 0.20 in5.1 mm
03:13 PM 55.1°F12.8°C 52.2°F11.2°C 90% 1.0 mph SW1.6 kmh SW 5.0 mph8.0 kmh 29.95 in1014.2 mb 0.11 in2.8 mm 0.00 in0.0 mm 0.20 in5.1 mm
03:15 PM 55.2°F12.9°C 52.3°F11.3°C 90% 3.0 mph ESE4.8 kmh ESE 8.0 mph12.9 kmh 29.95 in1014.2 mb 0.11 in2.8 mm 0.00 in0.0 mm 0.20 in5.1 mm
03:17 PM 55.3°F12.9°C 52.4°F11.3°C 90% 3.0 mph WSW4.8 kmh WSW 12.0 mph19.3 kmh 29.96 in1014.6 mb 0.09 in2.3 mm 0.00 in0.0 mm 0.20 in5.1 mm
03:19 PM 55.5°F13.1°C 52.6°F11.4°C 90% 3.0 mph SSW4.8 kmh SSW 12.0 mph19.3 kmh 29.95 in1014.2 mb 0.07 in1.8 mm 0.00 in0.0 mm 0.20 in5.1 mm
03:21 PM 55.6°F13.1°C 52.7°F11.5°C 90% 4.0 mph SW6.4 kmh SW 12.0 mph19.3 kmh 29.95 in1014.2 mb 0.06 in1.5 mm 0.00 in0.0 mm 0.20 in5.1 mm
03:23 PM 55.7°F13.2°C 52.8°F11.6°C 90% Calm Calm 12.0 mph19.3 kmh 29.95 in1014.2 mb 0.05 in1.3 mm 0.00 in0.0 mm 0.20 in5.1 mm
03:25 PM 55.7°F13.2°C 52.8°F11.6°C 90% Calm Calm 12.0 mph19.3 kmh 29.95 in1014.2 mb 0.04 in1.0 mm 0.00 in0.0 mm 0.20 in5.1 mm
03:27 PM 55.8°F13.2°C 52.9°F11.6°C 90% Calm Calm 12.0 mph19.3 kmh 29.95 in1014.2 mb 0.04 in1.0 mm 0.00 in0.0 mm 0.20 in5.1 mm
03:29 PM 55.8°F13.2°C 52.9°F11.6°C 90% 1.0 mph S1.6 kmh S 12.0 mph19.3 kmh 29.95 in1014.2 mb 0.00 in0.0 mm 0.00 in0.0 mm 0.20 in5.1 mm
03:31 PM 55.8°F13.2°C 52.9°F11.6°C 90% 1.0 mph SSE1.6 kmh SSE 12.0 mph19.3 kmh 29.95 in1014.2 mb 0.00 in0.0 mm 0.00 in0.0 mm 0.20 in5.1 mm
03:33 PM 55.9°F13.3°C 53.0°F11.7°C 90% 2.0 mph SE3.2 kmh SE 12.0 mph19.3 kmh 29.95 in1014.2 mb 0.00 in0.0 mm 0.00 in0.0 mm 0.20 in5.1 mm
03:35 PM 56.0°F13.3°C 53.1°F11.7°C 90% 2.0 mph SSE3.2 kmh SSE 12.0 mph19.3 kmh 29.95 in1014.2 mb 0.00 in0.0 mm 0.00 in0.0 mm 0.20 in5.1 mm
03:37 PM 56.0°F13.3°C 53.1°F11.7°C 90% 1.0 mph S1.6 kmh S 5.0 mph8.0 kmh 29.95 in1014.2 mb 0.00 in0.0 mm 0.00 in0.0 mm 0.20 in5.1 mm
03:39 PM 56.0°F13.3°C 53.1°F11.7°C 90% 1.0 mph S1.6 kmh S 7.0 mph11.3 kmh 29.95 in1014.2 mb 0.00 in0.0 mm 0.00 in0.0 mm 0.20 in5.1 mm
03:41 PM 56.1°F13.4°C 53.5°F11.9°C 91% 2.0 mph WSW3.2 kmh WSW 7.0 mph11.3 kmh 29.95 in1014.2 mb 0.00 in0.0 mm 0.00 in0.0 mm 0.20 in5.1 mm
03:43 PM 56.2°F13.4°C 53.6°F12.0°C 91% 1.0 mph S1.6 kmh S 7.0 mph11.3 kmh 29.95 in1014.2 mb 0.00 in0.0 mm 0.00 in0.0 mm 0.20 in5.1 mm
03:45 PM 56.2°F13.4°C 53.6°F12.0°C 91% 1.0 mph SW1.6 kmh SW 7.0 mph11.3 kmh 29.95 in1014.2 mb 0.00 in0.0 mm 0.00 in0.0 mm 0.20 in5.1 mm
03:47 PM 56.2°F13.4°C 53.6°F12.0°C 91% 3.0 mph SW4.8 kmh SW 7.0 mph11.3 kmh 29.95 in1014.2 mb 0.00 in0.0 mm 0.00 in0.0 mm 0.20 in5.1 mm
03:49 PM 56.2°F13.4°C 53.6°F12.0°C 91% 2.0 mph S3.2 kmh S 7.0 mph11.3 kmh 29.95 in1014.2 mb 0.00 in0.0 mm 0.00 in0.0 mm 0.20 in5.1 mm
03:51 PM 56.2°F13.4°C 53.6°F12.0°C 91% 1.0 mph SE1.6 kmh SE 7.0 mph11.3 kmh 29.95 in1014.2 mb 0.00 in0.0 mm 0.00 in0.0 mm 0.20 in5.1 mm
03:53 PM 56.2°F13.4°C 53.6°F12.0°C 91% 1.0 mph SSE1.6 kmh SSE 7.0 mph11.3 kmh 29.95 in1014.2 mb 0.00 in0.0 mm 0.00 in0.0 mm 0.20 in5.1 mm
03:55 PM 56.2°F13.4°C 53.6°F12.0°C 91% 3.0 mph SW4.8 kmh SW 7.0 mph11.3 kmh 29.94 in1013.9 mb 0.00 in0.0 mm 0.00 in0.0 mm 0.20 in5.1 mm
03:57 PM 56.3°F13.5°C 53.7°F12.1°C 91% 4.0 mph SE6.4 kmh SE 7.0 mph11.3 kmh 29.94 in1013.9 mb 0.00 in0.0 mm 0.00 in0.0 mm 0.20 in5.1 mm
03:59 PM 56.3°F13.5°C 53.7°F12.1°C 91% Calm Calm 7.0 mph11.3 kmh 29.95 in1014.2 mb 0.00 in0.0 mm 0.00 in0.0 mm 0.20 in5.1 mm
04:01 PM 56.3°F13.5°C 53.7°F12.1°C 91% 1.0 mph SSW1.6 kmh SSW 7.0 mph11.3 kmh 29.94 in1013.9 mb 0.00 in0.0 mm 0.00 in0.0 mm 0.20 in5.1 mm
04:03 PM 56.3°F13.5°C 53.7°F12.1°C 91% 4.0 mph SW6.4 kmh SW 7.0 mph11.3 kmh 29.95 in1014.2 mb 0.00 in0.0 mm 0.00 in0.0 mm 0.20 in5.1 mm
04:05 PM 56.3°F13.5°C 53.7°F12.1°C 91% 1.0 mph S1.6 kmh S 7.0 mph11.3 kmh 29.94 in1013.9 mb 0.00 in0.0 mm 0.00 in0.0 mm 0.20 in5.1 mm
04:07 PM 56.3°F13.5°C 53.7°F12.1°C 91% 1.0 mph WSW1.6 kmh WSW 7.0 mph11.3 kmh 29.94 in1013.9 mb 0.00 in0.0 mm 0.00 in0.0 mm 0.20 in5.1 mm
04:09 PM 56.3°F13.5°C 53.7°F12.1°C 91% 2.0 mph SSE3.2 kmh SSE 7.0 mph11.3 kmh 29.94 in1013.9 mb 0.00 in0.0 mm 0.00 in0.0 mm 0.20 in5.1 mm
04:11 PM 56.3°F13.5°C 53.7°F12.1°C 91% 4.0 mph SSE6.4 kmh SSE 7.0 mph11.3 kmh 29.94 in1013.9 mb 0.00 in0.0 mm 0.00 in0.0 mm 0.20 in5.1 mm
04:13 PM 56.2°F13.4°C 53.6°F12.0°C 91% 1.0 mph SSE1.6 kmh SSE 7.0 mph11.3 kmh 29.94 in1013.9 mb 0.00 in0.0 mm 0.00 in0.0 mm 0.20 in5.1 mm
04:15 PM 56.2°F13.4°C 53.3°F11.8°C 90% 3.0 mph SW4.8 kmh SW 7.0 mph11.3 kmh 29.94 in1013.9 mb 0.00 in0.0 mm 0.00 in0.0 mm 0.20 in5.1 mm
04:17 PM 56.2°F13.4°C 53.3°F11.8°C 90% 2.0 mph SSE3.2 kmh SSE 7.0 mph11.3 kmh 29.94 in1013.9 mb 0.00 in0.0 mm 0.00 in0.0 mm 0.20 in5.1 mm
04:19 PM 56.1°F13.4°C 53.2°F11.8°C 90% 5.0 mph SW8.0 kmh SW 7.0 mph11.3 kmh 29.94 in1013.9 mb 0.00 in0.0 mm 0.00 in0.0 mm 0.20 in5.1 mm
04:21 PM 56.1°F13.4°C 53.2°F11.8°C 93% 2.0 mph SSE3.2 kmh SSE 7.0 mph11.3 kmh 29.94 in1013.9 mb 0.00 in0.0 mm 0.00 in0.0 mm 0.20 in5.1 mm
04:23 PM 56.1°F13.4°C 53.5°F11.9°C 95% 2.0 mph SSW3.2 kmh SSW 7.0 mph11.3 kmh 29.94 in1013.9 mb 0.00 in0.0 mm 0.00 in0.0 mm 0.20 in5.1 mm
04:25 PM 56.1°F13.4°C 53.5°F11.9°C 95% 2.0 mph WSW3.2 kmh WSW 8.0 mph12.9 kmh 29.94 in1013.9 mb 0.00 in0.0 mm 0.00 in0.0 mm 0.20 in5.1 mm
04:27 PM 56.1°F13.4°C 53.2°F11.8°C 94% 3.0 mph S4.8 kmh S 8.0 mph12.9 kmh 29.94 in1013.9 mb 0.00 in0.0 mm 0.00 in0.0 mm 0.20 in5.1 mm
04:29 PM 56.1°F13.4°C 53.2°F11.8°C 94% 3.0 mph S4.8 kmh S 8.0 mph12.9 kmh 29.94 in1013.9 mb 0.00 in0.0 mm 0.00 in0.0 mm 0.20 in5.1 mm
04:31 PM 56.2°F13.4°C 53.6°F12.0°C 95% 1.0 mph S1.6 kmh S 8.0 mph12.9 kmh 29.94 in1013.9 mb 0.00 in0.0 mm 0.00 in0.0 mm 0.20 in5.1 mm
04:33 PM 56.1°F13.4°C 53.5°F11.9°C 95% 1.0 mph SE1.6 kmh SE 8.0 mph12.9 kmh 29.94 in1013.9 mb 0.00 in0.0 mm 0.00 in0.0 mm 0.20 in5.1 mm
04:35 PM 56.1°F13.4°C 53.2°F11.8°C 94% 2.0 mph WSW3.2 kmh WSW 8.0 mph12.9 kmh 29.94 in1013.9 mb 0.00 in0.0 mm 0.00 in0.0 mm 0.20 in5.1 mm
04:37 PM 56.1°F13.4°C 53.2°F11.8°C 94% 3.0 mph SE4.8 kmh SE 10.0 mph16.1 kmh 29.94 in1013.9 mb 0.00 in0.0 mm 0.00 in0.0 mm 0.20 in5.1 mm
04:39 PM 56.2°F13.4°C 53.6°F12.0°C 95% 5.0 mph S8.0 kmh S 10.0 mph16.1 kmh 29.94 in1013.9 mb 0.00 in0.0 mm 0.00 in0.0 mm 0.20 in5.1 mm
04:41 PM 56.2°F13.4°C 53.6°F12.0°C 95% 7.0 mph S11.3 kmh S 11.0 mph17.7 kmh 29.94 in1013.9 mb 0.27 in6.9 mm 8.10 in205.7 mm 0.21 in5.3 mm
04:43 PM 56.2°F13.4°C 53.6°F12.0°C 95% 1.0 mph S1.6 kmh S 11.0 mph17.7 kmh 29.93 in1013.5 mb 0.27 in6.9 mm 0.00 in0.0 mm 0.22 in5.6 mm
04:45 PM 56.3°F13.5°C 53.7°F12.1°C 95% 8.0 mph SSE12.9 kmh SSE 11.0 mph17.7 kmh 29.93 in1013.5 mb 0.15 in3.8 mm 0.00 in0.0 mm 0.22 in5.6 mm
04:47 PM 56.3°F13.5°C 53.7°F12.1°C 95% 3.0 mph ESE4.8 kmh ESE 11.0 mph17.7 kmh 29.93 in1013.5 mb 0.12 in3.0 mm 0.00 in0.0 mm 0.23 in5.8 mm
04:49 PM 56.3°F13.5°C 53.7°F12.1°C 95% 6.0 mph SSE9.7 kmh SSE 11.0 mph17.7 kmh 29.93 in1013.5 mb 0.12 in3.0 mm 0.00 in0.0 mm 0.23 in5.8 mm
04:51 PM 56.4°F13.6°C 53.8°F12.1°C 95% 1.0 mph SSW1.6 kmh SSW 11.0 mph17.7 kmh 29.93 in1013.5 mb 0.17 in4.3 mm 1.50 in38.1 mm 0.24 in6.1 mm
04:53 PM 56.3°F13.5°C 53.7°F12.1°C 95% Calm Calm 11.0 mph17.7 kmh 29.93 in1013.5 mb 0.17 in4.3 mm 0.00 in0.0 mm 0.24 in6.1 mm
04:55 PM 56.3°F13.5°C 53.7°F12.1°C 95% 1.0 mph S1.6 kmh S 11.0 mph17.7 kmh 29.93 in1013.5 mb 0.11 in2.8 mm 0.00 in0.0 mm 0.24 in6.1 mm
04:57 PM 56.3°F13.5°C 53.7°F12.1°C 95% 4.0 mph S6.4 kmh S 11.0 mph17.7 kmh 29.93 in1013.5 mb 0.09 in2.3 mm 0.00 in0.0 mm 0.25 in6.4 mm
04:59 PM 56.3°F13.5°C 53.7°F12.1°C 95% 1.0 mph SSW1.6 kmh SSW 11.0 mph17.7 kmh 29.93 in1013.5 mb 0.24 in6.1 mm 4.50 in114.3 mm 0.26 in6.6 mm
05:01 PM 56.3°F13.5°C 53.7°F12.1°C 95% 3.0 mph SSE4.8 kmh SSE 7.0 mph11.3 kmh 29.93 in1013.5 mb 0.24 in6.1 mm 0.00 in0.0 mm 0.26 in6.6 mm
05:03 PM 56.3°F13.5°C 53.7°F12.1°C 95% 7.0 mph SW11.3 kmh SW 7.0 mph11.3 kmh 29.94 in1013.9 mb 0.13 in3.3 mm 0.00 in0.0 mm 0.26 in6.6 mm
05:05 PM 56.3°F13.5°C 53.7°F12.1°C 95% 2.0 mph SSW3.2 kmh SSW 10.0 mph16.1 kmh 29.93 in1013.5 mb 0.49 in12.4 mm 10.80 in274.3 mm 0.28 in7.1 mm
05:07 PM 56.3°F13.5°C 53.7°F12.1°C 95% 3.0 mph SW4.8 kmh SW 10.0 mph16.1 kmh 29.94 in1013.9 mb 0.36 in9.1 mm 0.00 in0.0 mm 0.29 in7.4 mm
05:09 PM 56.3°F13.5°C 53.7°F12.1°C 95% 1.0 mph WSW1.6 kmh WSW 10.0 mph16.1 kmh 29.94 in1013.9 mb 0.34 in8.6 mm 0.00 in0.0 mm 0.30 in7.6 mm
05:11 PM 56.3°F13.5°C 53.7°F12.1°C 95% 2.0 mph ESE3.2 kmh ESE 10.0 mph16.1 kmh 29.94 in1013.9 mb 0.24 in6.1 mm 0.00 in0.0 mm 0.31 in7.9 mm
05:13 PM 56.3°F13.5°C 53.7°F12.1°C 95% 4.0 mph WSW6.4 kmh WSW 10.0 mph16.1 kmh 29.94 in1013.9 mb 0.37 in9.4 mm 3.90 in99.1 mm 0.32 in8.1 mm
05:15 PM 56.3°F13.5°C 53.7°F12.1°C 95% 3.0 mph S4.8 kmh S 10.0 mph16.1 kmh 29.94 in1013.9 mb 0.22 in5.6 mm 0.00 in0.0 mm 0.33 in8.4 mm
05:17 PM 56.3°F13.5°C 53.7°F12.1°C 95% 3.0 mph SW4.8 kmh SW 10.0 mph16.1 kmh 29.94 in1013.9 mb 0.38 in9.7 mm 4.80 in121.9 mm 0.34 in8.6 mm
05:19 PM 56.4°F13.6°C 53.8°F12.1°C 95% 3.0 mph SSE4.8 kmh SSE 10.0 mph16.1 kmh 29.94 in1013.9 mb 0.31 in7.9 mm 0.00 in0.0 mm 0.35 in8.9 mm
05:21 PM 56.4°F13.6°C 53.8°F12.1°C 95% 5.0 mph S8.0 kmh S 10.0 mph16.1 kmh 29.94 in1013.9 mb 0.36 in9.1 mm 1.50 in38.1 mm 0.36 in9.1 mm
05:23 PM 56.4°F13.6°C 53.8°F12.1°C 95% 4.0 mph WSW6.4 kmh WSW 10.0 mph16.1 kmh 29.93 in1013.5 mb 0.46 in11.7 mm 3.00 in76.2 mm 0.38 in9.7 mm
05:25 PM 56.5°F13.6°C 53.9°F12.2°C 95% 2.0 mph WSW3.2 kmh WSW 14.0 mph22.5 kmh 29.93 in1013.5 mb 0.29 in7.4 mm 0.00 in0.0 mm 0.39 in9.9 mm
05:27 PM 56.6°F13.7°C 54.0°F12.2°C 95% 3.0 mph SSW4.8 kmh SSW 14.0 mph22.5 kmh 29.93 in1013.5 mb 0.24 in6.1 mm 0.00 in0.0 mm 0.39 in9.9 mm
05:29 PM 56.6°F13.7°C 54.0°F12.2°C 95% 1.0 mph SSW1.6 kmh SSW 14.0 mph22.5 kmh 29.93 in1013.5 mb 0.24 in6.1 mm 0.00 in0.0 mm 0.40 in10.2 mm
05:31 PM 56.7°F13.7°C 54.1°F12.3°C 95% 1.0 mph SW1.6 kmh SW 14.0 mph22.5 kmh 29.93 in1013.5 mb 0.20 in5.1 mm 0.00 in0.0 mm 0.41 in10.4 mm
05:33 PM 56.7°F13.7°C 54.1°F12.3°C 95% 4.0 mph WSW6.4 kmh WSW 14.0 mph22.5 kmh 29.94 in1013.9 mb 0.40 in10.2 mm 6.00 in152.4 mm 0.42 in10.7 mm
05:35 PM 56.7°F13.7°C 54.1°F12.3°C 95% 1.0 mph WSW1.6 kmh WSW 14.0 mph22.5 kmh 29.94 in1013.9 mb 0.46 in11.7 mm 1.80 in45.7 mm 0.44 in11.2 mm
05:37 PM 56.8°F13.8°C 54.2°F12.3°C 95% 2.0 mph SW3.2 kmh SW 14.0 mph22.5 kmh 29.93 in1013.5 mb 0.41 in10.4 mm 0.00 in0.0 mm 0.45 in11.4 mm
05:39 PM 56.8°F13.8°C 54.2°F12.3°C 95% 6.0 mph WSW9.7 kmh WSW 17.0 mph27.4 kmh 29.93 in1013.5 mb 0.27 in6.9 mm 0.00 in0.0 mm 0.46 in11.7 mm
05:41 PM 57.0°F13.9°C 54.4°F12.4°C 95% 2.0 mph S3.2 kmh S 17.0 mph27.4 kmh 29.93 in1013.5 mb 0.15 in3.8 mm 0.00 in0.0 mm 0.46 in11.7 mm
05:43 PM 57.1°F13.9°C 54.8°F12.7°C 96% 4.0 mph SW6.4 kmh SW 17.0 mph27.4 kmh 29.93 in1013.5 mb 0.15 in3.8 mm 0.00 in0.0 mm 0.47 in11.9 mm
05:47 PM 57.1°F13.9°C 54.5°F12.5°C 95% 2.0 mph SSW3.2 kmh SSW 17.0 mph27.4 kmh 29.93 in1013.5 mb 0.20 in5.1 mm 0.75 in19.1 mm 0.48 in12.2 mm
05:49 PM 57.1°F13.9°C 54.5°F12.5°C 95% 2.0 mph WNW3.2 kmh WNW 17.0 mph27.4 kmh 29.93 in1013.5 mb 0.16 in4.1 mm 0.00 in0.0 mm 0.49 in12.4 mm
05:51 PM 57.1°F13.9°C 54.5°F12.5°C 95% 4.0 mph WNW6.4 kmh WNW 17.0 mph27.4 kmh 29.94 in1013.9 mb 0.22 in5.6 mm 1.80 in45.7 mm 0.50 in12.7 mm
05:53 PM 57.0°F13.9°C 54.4°F12.4°C 95% 3.0 mph WSW4.8 kmh WSW 17.0 mph27.4 kmh 29.94 in1013.9 mb 0.22 in5.6 mm 0.00 in0.0 mm 0.50 in12.7 mm
05:55 PM 57.0°F13.9°C 54.4°F12.4°C 95% 3.0 mph WSW4.8 kmh WSW 17.0 mph27.4 kmh 29.94 in1013.9 mb 0.39 in9.9 mm 5.10 in129.5 mm 0.51 in13.0 mm
05:57 PM 57.0°F13.9°C 54.4°F12.4°C 95% 12.0 mph WSW19.3 kmh WSW 17.0 mph27.4 kmh 29.93 in1013.5 mb 0.42 in10.7 mm 0.90 in22.9 mm 0.53 in13.5 mm
05:59 PM 57.0°F13.9°C 54.4°F12.4°C 95% 3.0 mph SW4.8 kmh SW 14.0 mph22.5 kmh 29.93 in1013.5 mb 0.35 in8.9 mm 0.00 in0.0 mm 0.54 in13.7 mm
06:01 PM 57.0°F13.9°C 54.4°F12.4°C 95% 3.0 mph SW4.8 kmh SW 14.0 mph22.5 kmh 29.93 in1013.5 mb 0.17 in4.3 mm 0.00 in0.0 mm 0.54 in13.7 mm
06:03 PM 57.1°F13.9°C 54.5°F12.5°C 95% 11.0 mph WSW17.7 kmh WSW 14.0 mph22.5 kmh 29.93 in1013.5 mb 0.15 in3.8 mm 0.00 in0.0 mm 0.55 in14.0 mm
06:05 PM 57.1°F13.9°C 54.5°F12.5°C 95% 4.0 mph SSE6.4 kmh SSE 14.0 mph22.5 kmh 29.94 in1013.9 mb 0.30 in7.6 mm 4.50 in114.3 mm 0.56 in14.2 mm
06:07 PM 57.1°F13.9°C 54.5°F12.5°C 95% 1.0 mph SSE1.6 kmh SSE 14.0 mph22.5 kmh 29.94 in1013.9 mb 0.19 in4.8 mm 0.00 in0.0 mm 0.57 in14.5 mm
06:09 PM 57.0°F13.9°C 54.4°F12.4°C 95% 1.0 mph S1.6 kmh S 14.0 mph22.5 kmh 29.93 in1013.5 mb 0.19 in4.8 mm 0.00 in0.0 mm 0.57 in14.5 mm
06:11 PM 57.0°F13.9°C 54.4°F12.4°C 95% 5.0 mph S8.0 kmh S 14.0 mph22.5 kmh 29.93 in1013.5 mb 0.16 in4.1 mm 0.00 in0.0 mm 0.58 in14.7 mm
06:13 PM 57.0°F13.9°C 54.4°F12.4°C 95% 3.0 mph S4.8 kmh S 14.0 mph22.5 kmh 29.93 in1013.5 mb 0.16 in4.1 mm 0.00 in0.0 mm 0.58 in14.7 mm
06:15 PM 56.9°F13.8°C 54.3°F12.4°C 95% 2.0 mph SW3.2 kmh SW 14.0 mph22.5 kmh 29.93 in1013.5 mb 0.12 in3.0 mm 0.00 in0.0 mm 0.58 in14.7 mm
06:17 PM 56.9°F13.8°C 54.3°F12.4°C 95% 4.0 mph WSW6.4 kmh WSW 14.0 mph22.5 kmh 29.92 in1013.2 mb 0.09 in2.3 mm 0.00 in0.0 mm 0.59 in15.0 mm
06:19 PM 56.9°F13.8°C 54.3°F12.4°C 95% 2.0 mph W3.2 kmh W 14.0 mph22.5 kmh 29.92 in1013.2 mb 0.09 in2.3 mm 0.00 in0.0 mm 0.59 in15.0 mm
06:21 PM 56.8°F13.8°C 54.2°F12.3°C 95% 4.0 mph SW6.4 kmh SW 14.0 mph22.5 kmh 29.93 in1013.5 mb 0.22 in5.6 mm 3.90 in99.1 mm 0.60 in15.2 mm
06:23 PM 56.8°F13.8°C 54.2°F12.3°C 95% 2.0 mph W3.2 kmh W 14.0 mph22.5 kmh 29.93 in1013.5 mb 0.56 in14.2 mm 10.20 in259.1 mm 0.62 in15.7 mm
06:25 PM 56.7°F13.7°C 54.1°F12.3°C 95% 1.0 mph NW1.6 kmh NW 9.0 mph14.5 kmh 29.93 in1013.5 mb 0.47 in11.9 mm 0.00 in0.0 mm 0.64 in16.3 mm
06:27 PM 56.8°F13.8°C 54.2°F12.3°C 95% 2.0 mph SE3.2 kmh SE 9.0 mph14.5 kmh 29.93 in1013.5 mb 0.30 in7.6 mm 0.00 in0.0 mm 0.65 in16.5 mm
06:29 PM 56.7°F13.7°C 54.1°F12.3°C 95% 2.0 mph S3.2 kmh S 12.0 mph19.3 kmh 29.93 in1013.5 mb 0.27 in6.9 mm 0.00 in0.0 mm 0.66 in16.8 mm
06:31 PM 56.8°F13.8°C 54.2°F12.3°C 95% 6.0 mph S9.7 kmh S 12.0 mph19.3 kmh 29.92 in1013.2 mb 0.51 in13.0 mm 7.20 in182.9 mm 0.68 in17.3 mm
06:33 PM 56.8°F13.8°C 54.2°F12.3°C 95% 3.0 mph WNW4.8 kmh WNW 12.0 mph19.3 kmh 29.93 in1013.5 mb 0.27 in6.9 mm 0.00 in0.0 mm 0.69 in17.5 mm
06:35 PM 56.7°F13.7°C 54.1°F12.3°C 95% 2.0 mph NW3.2 kmh NW 12.0 mph19.3 kmh 29.93 in1013.5 mb 0.21 in5.3 mm 0.00 in0.0 mm 0.69 in17.5 mm
06:37 PM 56.7°F13.7°C 54.1°F12.3°C 95% Calm Calm 12.0 mph19.3 kmh 29.93 in1013.5 mb 0.12 in3.0 mm 0.00 in0.0 mm 0.69 in17.5 mm
06:39 PM 56.6°F13.7°C 54.0°F12.2°C 95% Calm Calm 12.0 mph19.3 kmh 29.93 in1013.5 mb 0.09 in2.3 mm 0.00 in0.0 mm 0.70 in17.8 mm
06:41 PM 56.6°F13.7°C 54.0°F12.2°C 95% 1.0 mph WNW1.6 kmh WNW 12.0 mph19.3 kmh 29.93 in1013.5 mb 0.09 in2.3 mm 0.00 in0.0 mm 0.70 in17.8 mm
06:43 PM 56.6°F13.7°C 54.0°F12.2°C 95% Calm Calm 12.0 mph19.3 kmh 29.93 in1013.5 mb 0.09 in2.3 mm 0.00 in0.0 mm 0.70 in17.8 mm
06:45 PM 56.6°F13.7°C 54.0°F12.2°C 95% 1.0 mph SW1.6 kmh SW 12.0 mph19.3 kmh 29.93 in1013.5 mb 0.09 in2.3 mm 0.00 in0.0 mm 0.70 in17.8 mm
06:47 PM 56.6°F13.7°C 54.3°F12.4°C 96% 1.0 mph SW1.6 kmh SW 12.0 mph19.3 kmh 29.93 in1013.5 mb 0.07 in1.8 mm 0.00 in0.0 mm 0.70 in17.8 mm
06:49 PM 56.6°F13.7°C 54.3°F12.4°C 96% 2.0 mph SW3.2 kmh SW 5.0 mph8.0 kmh 29.93 in1013.5 mb 0.06 in1.5 mm 0.00 in0.0 mm 0.70 in17.8 mm
06:51 PM 56.6°F13.7°C 54.3°F12.4°C 96% Calm Calm 5.0 mph8.0 kmh 29.92 in1013.2 mb 0.05 in1.3 mm 0.00 in0.0 mm 0.70 in17.8 mm
06:53 PM 56.5°F13.6°C 54.2°F12.3°C 96% 1.0 mph S1.6 kmh S 5.0 mph8.0 kmh 29.92 in1013.2 mb 0.04 in1.0 mm 0.00 in0.0 mm 0.70 in17.8 mm
06:55 PM 56.5°F13.6°C 54.2°F12.3°C 96% 3.0 mph S4.8 kmh S 7.0 mph11.3 kmh 29.93 in1013.5 mb 0.04 in1.0 mm 0.00 in0.0 mm 0.70 in17.8 mm
06:57 PM 56.5°F13.6°C 54.2°F12.3°C 96% 1.0 mph S1.6 kmh S 7.0 mph11.3 kmh 29.92 in1013.2 mb 0.00 in0.0 mm 0.00 in0.0 mm 0.70 in17.8 mm
06:59 PM 56.5°F13.6°C 54.2°F12.3°C 96% Calm Calm 7.0 mph11.3 kmh 29.93 in1013.5 mb 0.00 in0.0 mm 0.00 in0.0 mm 0.70 in17.8 mm
07:01 PM 56.4°F13.6°C 54.1°F12.3°C 96% Calm Calm 7.0 mph11.3 kmh 29.92 in1013.2 mb 0.00 in0.0 mm 0.00 in0.0 mm 0.70 in17.8 mm
07:03 PM 56.4°F13.6°C 54.1°F12.3°C 96% 1.0 mph S1.6 kmh S 7.0 mph11.3 kmh 29.92 in1013.2 mb 0.00 in0.0 mm 0.00 in0.0 mm 0.70 in17.8 mm
07:05 PM 56.3°F13.5°C 54.0°F12.2°C 96% 2.0 mph SE3.2 kmh SE 7.0 mph11.3 kmh 29.92 in1013.2 mb 0.00 in0.0 mm 0.00 in0.0 mm 0.70 in17.8 mm
07:07 PM 56.3°F13.5°C 53.7°F12.1°C 95% 1.0 mph S1.6 kmh S 7.0 mph11.3 kmh 29.92 in1013.2 mb 0.00 in0.0 mm 0.00 in0.0 mm 0.70 in17.8 mm
07:09 PM 56.2°F13.4°C 53.6°F12.0°C 95% 2.0 mph S3.2 kmh S 7.0 mph11.3 kmh 29.92 in1013.2 mb 0.00 in0.0 mm 0.00 in0.0 mm 0.70 in17.8 mm
07:11 PM 56.2°F13.4°C 53.6°F12.0°C 95% Calm Calm 7.0 mph11.3 kmh 29.92 in1013.2 mb 0.00 in0.0 mm 0.00 in0.0 mm 0.70 in17.8 mm
07:13 PM 56.2°F13.4°C 53.6°F12.0°C 95% Calm Calm -- 29.92 in1013.2 mb 0.00 in0.0 mm 0.00 in0.0 mm 0.70 in17.8 mm
07:15 PM 56.1°F13.4°C 53.5°F11.9°C 95% 2.0 mph SW3.2 kmh SW 4.0 mph6.4 kmh 29.92 in1013.2 mb 0.00 in0.0 mm 0.00 in0.0 mm 0.70 in17.8 mm
07:17 PM 56.1°F13.4°C 53.5°F11.9°C 95% 5.0 mph SSW8.0 kmh SSW 6.0 mph9.7 kmh 29.92 in1013.2 mb 0.00 in0.0 mm 0.00 in0.0 mm 0.70 in17.8 mm
07:19 PM 56.2°F13.4°C 53.9°F12.2°C 96% 2.0 mph S3.2 kmh S 8.0 mph12.9 kmh 29.92 in1013.2 mb 0.00 in0.0 mm 0.00 in0.0 mm 0.70 in17.8 mm
07:21 PM 56.2°F13.4°C 53.9°F12.2°C 96% Calm Calm 8.0 mph12.9 kmh 29.92 in1013.2 mb 0.00 in0.0 mm 0.00 in0.0 mm 0.70 in17.8 mm
07:23 PM 56.2°F13.4°C 53.9°F12.2°C 96% 4.0 mph WSW6.4 kmh WSW 8.0 mph12.9 kmh 29.92 in1013.2 mb 0.00 in0.0 mm 0.00 in0.0 mm 0.70 in17.8 mm
07:25 PM 56.2°F13.4°C 53.9°F12.2°C 96% 1.0 mph W1.6 kmh W 8.0 mph12.9 kmh 29.92 in1013.2 mb 0.00 in0.0 mm 0.00 in0.0 mm 0.70 in17.8 mm
07:27 PM 56.2°F13.4°C 53.9°F12.2°C 96% 2.0 mph SSW3.2 kmh SSW 8.0 mph12.9 kmh 29.92 in1013.2 mb 0.00 in0.0 mm 0.00 in0.0 mm 0.70 in17.8 mm
07:29 PM 56.2°F13.4°C 53.9°F12.2°C 96% Calm Calm 8.0 mph12.9 kmh 29.92 in1013.2 mb 0.00 in0.0 mm 0.00 in0.0 mm 0.70 in17.8 mm
07:31 PM 56.2°F13.4°C 53.9°F12.2°C 96% 2.0 mph SW3.2 kmh SW 8.0 mph12.9 kmh 29.91 in1012.9 mb 0.00 in0.0 mm 0.00 in0.0 mm 0.70 in17.8 mm
07:33 PM 56.2°F13.4°C 53.9°F12.2°C 96% 1.0 mph S1.6 kmh S 8.0 mph12.9 kmh 29.91 in1012.9 mb 0.00 in0.0 mm 0.00 in0.0 mm 0.70 in17.8 mm
07:35 PM 56.1°F13.4°C 53.8°F12.1°C 96% 1.0 mph S1.6 kmh S 8.0 mph12.9 kmh 29.91 in1012.9 mb 0.00 in0.0 mm 0.00 in0.0 mm 0.70 in17.8 mm
07:37 PM 56.2°F13.4°C 53.9°F12.2°C 96% 1.0 mph SSW1.6 kmh SSW 8.0 mph12.9 kmh 29.92 in1013.2 mb 0.00 in0.0 mm 0.00 in0.0 mm 0.70 in17.8 mm
07:39 PM 56.1°F13.4°C 53.8°F12.1°C 96% 2.0 mph NW3.2 kmh NW 6.0 mph9.7 kmh 29.91 in1012.9 mb 0.00 in0.0 mm 0.00 in0.0 mm 0.70 in17.8 mm
07:41 PM 56.1°F13.4°C 53.8°F12.1°C 96% Calm Calm 6.0 mph9.7 kmh 29.91 in1012.9 mb 0.00 in0.0 mm 0.00 in0.0 mm 0.70 in17.8 mm
07:43 PM 56.0°F13.3°C 53.7°F12.1°C 96% 1.0 mph NW1.6 kmh NW 6.0 mph9.7 kmh 29.91 in1012.9 mb 0.00 in0.0 mm 0.00 in0.0 mm 0.70 in17.8 mm
07:45 PM 56.0°F13.3°C 53.7°F12.1°C 96% Calm Calm 6.0 mph9.7 kmh 29.91 in1012.9 mb 0.00 in0.0 mm 0.00 in0.0 mm 0.70 in17.8 mm
07:47 PM 56.0°F13.3°C 53.7°F12.1°C 96% 3.0 mph SE4.8 kmh SE 6.0 mph9.7 kmh 29.91 in1012.9 mb 0.00 in0.0 mm 0.00 in0.0 mm 0.70 in17.8 mm
07:49 PM 56.1°F13.4°C 53.8°F12.1°C 96% 1.0 mph SE1.6 kmh SE 10.0 mph16.1 kmh 29.91 in1012.9 mb 0.00 in0.0 mm 0.00 in0.0 mm 0.70 in17.8 mm
07:51 PM 56.1°F13.4°C 53.8°F12.1°C 96% 3.0 mph S4.8 kmh S 10.0 mph16.1 kmh 29.91 in1012.9 mb 0.00 in0.0 mm 0.00 in0.0 mm 0.70 in17.8 mm
07:53 PM 56.2°F13.4°C 53.9°F12.2°C 96% Calm Calm 10.0 mph16.1 kmh 29.91 in1012.9 mb 0.00 in0.0 mm 0.00 in0.0 mm 0.70 in17.8 mm
07:55 PM 56.1°F13.4°C 53.8°F12.1°C 96% 2.0 mph S3.2 kmh S 10.0 mph16.1 kmh 29.91 in1012.9 mb 0.00 in0.0 mm 0.00 in0.0 mm 0.70 in17.8 mm
07:57 PM 56.1°F13.4°C 53.8°F12.1°C 96% 1.0 mph WSW1.6 kmh WSW 10.0 mph16.1 kmh 29.91 in1012.9 mb 0.00 in0.0 mm 0.00 in0.0 mm 0.70 in17.8 mm
07:59 PM 56.1°F13.4°C 53.8°F12.1°C 96% Calm Calm 10.0 mph16.1 kmh 29.91 in1012.9 mb 0.00 in0.0 mm 0.00 in0.0 mm 0.70 in17.8 mm
08:01 PM 56.0°F13.3°C 53.7°F12.1°C 96% 2.0 mph SSW3.2 kmh SSW 10.0 mph16.1 kmh 29.90 in1012.5 mb 0.00 in0.0 mm 0.00 in0.0 mm 0.70 in17.8 mm
08:03 PM 56.0°F13.3°C 53.7°F12.1°C 96% 1.0 mph SE1.6 kmh SE 10.0 mph16.1 kmh 29.90 in1012.5 mb 0.00 in0.0 mm 0.00 in0.0 mm 0.70 in17.8 mm
08:05 PM 56.0°F13.3°C 53.7°F12.1°C 96% 8.0 mph SE12.9 kmh SE 10.0 mph16.1 kmh 29.90 in1012.5 mb 0.00 in0.0 mm 0.00 in0.0 mm 0.70 in17.8 mm
08:07 PM 56.0°F13.3°C 53.7°F12.1°C 96% 2.0 mph S3.2 kmh S 10.0 mph16.1 kmh 29.90 in1012.5 mb 0.00 in0.0 mm 0.00 in0.0 mm 0.70 in17.8 mm
08:09 PM 56.0°F13.3°C 53.7°F12.1°C 96% 1.0 mph S1.6 kmh S 8.0 mph12.9 kmh 29.90 in1012.5 mb 0.00 in0.0 mm 0.00 in0.0 mm 0.70 in17.8 mm
08:11 PM 56.0°F13.3°C 53.7°F12.1°C 96% 4.0 mph SE6.4 kmh SE 8.0 mph12.9 kmh 29.90 in1012.5 mb 0.00 in0.0 mm 0.00 in0.0 mm 0.70 in17.8 mm
08:13 PM 56.1°F13.4°C 53.8°F12.1°C 96% Calm Calm 8.0 mph12.9 kmh 29.90 in1012.5 mb 0.00 in0.0 mm 0.00 in0.0 mm 0.70 in17.8 mm
08:15 PM 56.1°F13.4°C 53.8°F12.1°C 96% 4.0 mph S6.4 kmh S 8.0 mph12.9 kmh 29.90 in1012.5 mb 0.00 in0.0 mm 0.00 in0.0 mm 0.70 in17.8 mm
08:17 PM 56.0°F13.3°C 53.7°F12.1°C 96% 3.0 mph S4.8 kmh S 8.0 mph12.9 kmh 29.90 in1012.5 mb 0.00 in0.0 mm 0.00 in0.0 mm 0.70 in17.8 mm
08:19 PM 56.0°F13.3°C 53.7°F12.1°C 96% 2.0 mph SSW3.2 kmh SSW 8.0 mph12.9 kmh 29.90 in1012.5 mb 0.00 in0.0 mm 0.00 in0.0 mm 0.70 in17.8 mm
08:21 PM 56.0°F13.3°C 53.7°F12.1°C 96% 4.0 mph WSW6.4 kmh WSW 8.0 mph12.9 kmh 29.90 in1012.5 mb 0.00 in0.0 mm 0.00 in0.0 mm 0.70 in17.8 mm
08:23 PM 56.0°F13.3°C 53.7°F12.1°C 96% 1.0 mph SW1.6 kmh SW 8.0 mph12.9 kmh 29.90 in1012.5 mb 0.00 in0.0 mm 0.00 in0.0 mm 0.70 in17.8 mm
08:25 PM 56.1°F13.4°C 53.8°F12.1°C 96% Calm Calm 8.0 mph12.9 kmh 29.90 in1012.5 mb 0.00 in0.0 mm 0.00 in0.0 mm 0.70 in17.8 mm
08:27 PM 56.1°F13.4°C 53.8°F12.1°C 96% 1.0 mph SW1.6 kmh SW 8.0 mph12.9 kmh 29.89 in1012.2 mb 0.00 in0.0 mm 0.00 in0.0 mm 0.70 in17.8 mm
08:29 PM 56.1°F13.4°C 53.8°F12.1°C 96% 1.0 mph SSW1.6 kmh SSW 8.0 mph12.9 kmh 29.90 in1012.5 mb 0.00 in0.0 mm 0.00 in0.0 mm 0.70 in17.8 mm
08:31 PM 56.2°F13.4°C 53.9°F12.2°C 96% 2.0 mph ESE3.2 kmh ESE 8.0 mph12.9 kmh 29.89 in1012.2 mb 0.00 in0.0 mm 0.00 in0.0 mm 0.70 in17.8 mm
08:33 PM 56.2°F13.4°C 53.9°F12.2°C 96% 3.0 mph SW4.8 kmh SW 8.0 mph12.9 kmh 29.89 in1012.2 mb 0.00 in0.0 mm 0.00 in0.0 mm 0.70 in17.8 mm
08:35 PM 56.3°F13.5°C 54.0°F12.2°C 96% 1.0 mph SW1.6 kmh SW 8.0 mph12.9 kmh 29.90 in1012.5 mb 0.00 in0.0 mm 0.00 in0.0 mm 0.70 in17.8 mm
08:37 PM 56.3°F13.5°C 54.0°F12.2°C 96% 1.0 mph W1.6 kmh W 8.0 mph12.9 kmh 29.89 in1012.2 mb 0.00 in0.0 mm 0.00 in0.0 mm 0.70 in17.8 mm
08:39 PM 56.3°F13.5°C 54.0°F12.2°C 96% Calm Calm 8.0 mph12.9 kmh 29.89 in1012.2 mb 0.00 in0.0 mm 0.00 in0.0 mm 0.70 in17.8 mm
08:41 PM 56.3°F13.5°C 54.0°F12.2°C 96% 1.0 mph WSW1.6 kmh WSW 8.0 mph12.9 kmh 29.89 in1012.2 mb 0.00 in0.0 mm 0.00 in0.0 mm 0.70 in17.8 mm
08:43 PM 56.3°F13.5°C 54.0°F12.2°C 96% Calm Calm 8.0 mph12.9 kmh 29.89 in1012.2 mb 0.00 in0.0 mm 0.00 in0.0 mm 0.70 in17.8 mm
08:45 PM 56.4°F13.6°C 54.1°F12.3°C 96% 3.0 mph SW4.8 kmh SW 8.0 mph12.9 kmh 29.89 in1012.2 mb 0.00 in0.0 mm 0.00 in0.0 mm 0.70 in17.8 mm
08:47 PM 56.4°F13.6°C 54.1°F12.3°C 96% 2.0 mph S3.2 kmh S 8.0 mph12.9 kmh 29.89 in1012.2 mb 0.00 in0.0 mm 0.00 in0.0 mm 0.70 in17.8 mm
08:49 PM 56.4°F13.6°C 54.1°F12.3°C 96% 2.0 mph SW3.2 kmh SW 9.0 mph14.5 kmh 29.89 in1012.2 mb 0.00 in0.0 mm 0.00 in0.0 mm 0.70 in17.8 mm
08:51 PM 56.4°F13.6°C 54.1°F12.3°C 96% 2.0 mph SSW3.2 kmh SSW 9.0 mph14.5 kmh 29.89 in1012.2 mb 0.00 in0.0 mm 0.00 in0.0 mm 0.70 in17.8 mm
08:53 PM 56.4°F13.6°C 54.1°F12.3°C 96% 2.0 mph SSW3.2 kmh SSW 9.0 mph14.5 kmh 29.89 in1012.2 mb 0.00 in0.0 mm 0.00 in0.0 mm 0.70 in17.8 mm
08:55 PM 56.4°F13.6°C 54.1°F12.3°C 96% 2.0 mph SSW3.2 kmh SSW 9.0 mph14.5 kmh 29.88 in1011.9 mb 0.00 in0.0 mm 0.00 in0.0 mm 0.70 in17.8 mm
08:57 PM 56.4°F13.6°C 54.1°F12.3°C 96% 2.0 mph S3.2 kmh S 9.0 mph14.5 kmh 29.88 in1011.9 mb 0.00 in0.0 mm 0.00 in0.0 mm 0.70 in17.8 mm
08:59 PM 56.4°F13.6°C 54.1°F12.3°C 96% 2.0 mph S3.2 kmh S 9.0 mph14.5 kmh 29.88 in1011.9 mb 0.00 in0.0 mm 0.00 in0.0 mm 0.70 in17.8 mm
09:01 PM 56.4°F13.6°C 54.1°F12.3°C 96% Calm Calm 9.0 mph14.5 kmh 29.88 in1011.9 mb 0.00 in0.0 mm 0.00 in0.0 mm 0.71 in18.0 mm
09:03 PM 56.4°F13.6°C 54.1°F12.3°C 96% 2.0 mph SSW3.2 kmh SSW 9.0 mph14.5 kmh 29.88 in1011.9 mb 0.00 in0.0 mm 0.00 in0.0 mm 0.71 in18.0 mm
09:05 PM 56.3°F13.5°C 54.0°F12.2°C 96% 1.0 mph SSW1.6 kmh SSW 9.0 mph14.5 kmh 29.88 in1011.9 mb 0.00 in0.0 mm 0.00 in0.0 mm 0.71 in18.0 mm
09:07 PM 56.3°F13.5°C 54.0°F12.2°C 96% 3.0 mph SSE4.8 kmh SSE 9.0 mph14.5 kmh 29.88 in1011.9 mb 0.00 in0.0 mm 0.00 in0.0 mm 0.71 in18.0 mm
09:09 PM 56.3°F13.5°C 54.0°F12.2°C 96% 2.0 mph SW3.2 kmh SW 11.0 mph17.7 kmh 29.88 in1011.9 mb 0.00 in0.0 mm 0.00 in0.0 mm 0.71 in18.0 mm
09:11 PM 56.4°F13.6°C 54.1°F12.3°C 96% 1.0 mph S1.6 kmh S 11.0 mph17.7 kmh 29.88 in1011.9 mb 0.00 in0.0 mm 0.00 in0.0 mm 0.71 in18.0 mm
09:13 PM 56.4°F13.6°C 54.1°F12.3°C 96% Calm Calm 11.0 mph17.7 kmh 29.88 in1011.9 mb 0.00 in0.0 mm 0.00 in0.0 mm 0.71 in18.0 mm
09:15 PM 56.4°F13.6°C 54.1°F12.3°C 96% 1.0 mph SW1.6 kmh SW 11.0 mph17.7 kmh 29.88 in1011.9 mb 0.00 in0.0 mm 0.00 in0.0 mm 0.71 in18.0 mm
09:17 PM 56.4°F13.6°C 54.1°F12.3°C 96% 3.0 mph SSW4.8 kmh SSW 13.0 mph20.9 kmh 29.88 in1011.9 mb 0.00 in0.0 mm 0.00 in0.0 mm 0.71 in18.0 mm
09:19 PM 56.4°F13.6°C 54.1°F12.3°C 96% 8.0 mph SE12.9 kmh SE 13.0 mph20.9 kmh 29.88 in1011.9 mb 0.00 in0.0 mm 0.00 in0.0 mm 0.71 in18.0 mm
09:21 PM 56.5°F13.6°C 54.2°F12.3°C 96% 1.0 mph S1.6 kmh S 13.0 mph20.9 kmh 29.88 in1011.9 mb 0.00 in0.0 mm 0.00 in0.0 mm 0.71 in18.0 mm
09:23 PM 56.4°F13.6°C 54.1°F12.3°C 96% 2.0 mph WSW3.2 kmh WSW 13.0 mph20.9 kmh 29.88 in1011.9 mb 0.00 in0.0 mm 0.00 in0.0 mm 0.71 in18.0 mm
09:25 PM 56.4°F13.6°C 54.1°F12.3°C 96% 1.0 mph S1.6 kmh S 13.0 mph20.9 kmh 29.88 in1011.9 mb 0.00 in0.0 mm 0.00 in0.0 mm 0.71 in18.0 mm
09:27 PM 56.4°F13.6°C 54.1°F12.3°C 96% 7.0 mph SW11.3 kmh SW 13.0 mph20.9 kmh 29.88 in1011.9 mb 0.00 in0.0 mm 0.00 in0.0 mm 0.71 in18.0 mm
09:29 PM 56.5°F13.6°C 54.2°F12.3°C 96% 1.0 mph NW1.6 kmh NW 13.0 mph20.9 kmh 29.87 in1011.5 mb 0.00 in0.0 mm 0.00 in0.0 mm 0.71 in18.0 mm
09:31 PM 56.5°F13.6°C 54.2°F12.3°C 96% 5.0 mph S8.0 kmh S 13.0 mph20.9 kmh 29.87 in1011.5 mb 0.00 in0.0 mm 0.00 in0.0 mm 0.71 in18.0 mm
09:33 PM 56.5°F13.6°C 54.2°F12.3°C 96% 6.0 mph SW9.7 kmh SW 13.0 mph20.9 kmh 29.87 in1011.5 mb 0.00 in0.0 mm 0.00 in0.0 mm 0.71 in18.0 mm
09:35 PM 56.5°F13.6°C 54.2°F12.3°C 96% 1.0 mph WNW1.6 kmh WNW 13.0 mph20.9 kmh 29.87 in1011.5 mb 0.00 in0.0 mm 0.00 in0.0 mm 0.71 in18.0 mm
09:37 PM 56.4°F13.6°C 54.1°F12.3°C 96% 1.0 mph S1.6 kmh S 11.0 mph17.7 kmh 29.87 in1011.5 mb 0.00 in0.0 mm 0.00 in0.0 mm 0.71 in18.0 mm
09:39 PM 56.3°F13.5°C 54.0°F12.2°C 96% 1.0 mph SSE1.6 kmh SSE 11.0 mph17.7 kmh 29.87 in1011.5 mb 0.00 in0.0 mm 0.00 in0.0 mm 0.71 in18.0 mm
09:41 PM 56.3°F13.5°C 54.0°F12.2°C 96% 3.0 mph S4.8 kmh S 11.0 mph17.7 kmh 29.87 in1011.5 mb 0.00 in0.0 mm 0.00 in0.0 mm 0.71 in18.0 mm
09:43 PM 56.3°F13.5°C 54.0°F12.2°C 96% 1.0 mph S1.6 kmh S 11.0 mph17.7 kmh 29.86 in1011.2 mb 0.00 in0.0 mm 0.00 in0.0 mm 0.71 in18.0 mm
09:45 PM 56.4°F13.6°C 54.1°F12.3°C 96% 2.0 mph SSW3.2 kmh SSW 11.0 mph17.7 kmh 29.87 in1011.5 mb 0.00 in0.0 mm 0.00 in0.0 mm 0.71 in18.0 mm
09:47 PM 56.4°F13.6°C 54.1°F12.3°C 96% 2.0 mph WSW3.2 kmh WSW 11.0 mph17.7 kmh 29.87 in1011.5 mb 0.00 in0.0 mm 0.00 in0.0 mm 0.71 in18.0 mm
09:49 PM 56.4°F13.6°C 54.1°F12.3°C 96% 1.0 mph SW1.6 kmh SW 11.0 mph17.7 kmh 29.87 in1011.5 mb 0.00 in0.0 mm 0.00 in0.0 mm 0.71 in18.0 mm
09:51 PM 56.4°F13.6°C 54.1°F12.3°C 96% 3.0 mph E4.8 kmh E 11.0 mph17.7 kmh 29.86 in1011.2 mb 0.00 in0.0 mm 0.00 in0.0 mm 0.71 in18.0 mm
09:53 PM 56.4°F13.6°C 54.1°F12.3°C 96% 3.0 mph S4.8 kmh S 11.0 mph17.7 kmh 29.86 in1011.2 mb 0.00 in0.0 mm 0.00 in0.0 mm 0.71 in18.0 mm
09:55 PM 56.4°F13.6°C 54.1°F12.3°C 96% 5.0 mph S8.0 kmh S 11.0 mph17.7 kmh 29.86 in1011.2 mb 0.00 in0.0 mm 0.00 in0.0 mm 0.71 in18.0 mm
09:57 PM 56.4°F13.6°C 54.1°F12.3°C 96% 1.0 mph S1.6 kmh S 11.0 mph17.7 kmh 29.86 in1011.2 mb 0.00 in0.0 mm 0.00 in0.0 mm 0.71 in18.0 mm
09:59 PM 56.4°F13.6°C 54.1°F12.3°C 96% 2.0 mph SW3.2 kmh SW 11.0 mph17.7 kmh 29.86 in1011.2 mb 0.00 in0.0 mm 0.00 in0.0 mm 0.71 in18.0 mm
10:01 PM 56.4°F13.6°C 54.1°F12.3°C 96% 1.0 mph S1.6 kmh S 8.0 mph12.9 kmh 29.86 in1011.2 mb 0.00 in0.0 mm 0.00 in0.0 mm 0.71 in18.0 mm
10:03 PM 56.4°F13.6°C 54.1°F12.3°C 96% 6.0 mph S9.7 kmh S 8.0 mph12.9 kmh 29.86 in1011.2 mb 0.00 in0.0 mm 0.00 in0.0 mm 0.71 in18.0 mm
10:05 PM 56.3°F13.5°C 54.0°F12.2°C 96% 3.0 mph WSW4.8 kmh WSW 8.0 mph12.9 kmh 29.86 in1011.2 mb 0.00 in0.0 mm 0.00 in0.0 mm 0.71 in18.0 mm
10:07 PM 56.3°F13.5°C 54.0°F12.2°C 96% 1.0 mph W1.6 kmh W 9.0 mph14.5 kmh 29.86 in1011.2 mb 0.00 in0.0 mm 0.00 in0.0 mm 0.71 in18.0 mm
10:09 PM 56.3°F13.5°C 54.0°F12.2°C 96% 1.0 mph WSW1.6 kmh WSW 9.0 mph14.5 kmh 29.86 in1011.2 mb 0.00 in0.0 mm 0.00 in0.0 mm 0.71 in18.0 mm
10:11 PM 56.3°F13.5°C 54.0°F12.2°C 96% 3.0 mph SW4.8 kmh SW 10.0 mph16.1 kmh 29.86 in1011.2 mb 0.00 in0.0 mm 0.00 in0.0 mm 0.71 in18.0 mm
10:13 PM 56.4°F13.6°C 54.1°F12.3°C 96% 2.0 mph SSW3.2 kmh SSW 10.0 mph16.1 kmh 29.86 in1011.2 mb 0.00 in0.0 mm 0.00 in0.0 mm 0.71 in18.0 mm
10:15 PM 56.4°F13.6°C 54.1°F12.3°C 96% 4.0 mph SSE6.4 kmh SSE 10.0 mph16.1 kmh 29.86 in1011.2 mb 0.00 in0.0 mm 0.00 in0.0 mm 0.71 in18.0 mm
10:17 PM 56.3°F13.5°C 54.0°F12.2°C 96% 1.0 mph SW1.6 kmh SW 10.0 mph16.1 kmh 29.86 in1011.2 mb 0.00 in0.0 mm 0.00 in0.0 mm 0.71 in18.0 mm
10:19 PM 56.3°F13.5°C 54.0°F12.2°C 96% 2.0 mph SW3.2 kmh SW 10.0 mph16.1 kmh 29.86 in1011.2 mb 0.00 in0.0 mm 0.00 in0.0 mm 0.71 in18.0 mm
10:21 PM 56.3°F13.5°C 54.0°F12.2°C 96% 2.0 mph SW3.2 kmh SW 10.0 mph16.1 kmh 29.86 in1011.2 mb 0.00 in0.0 mm 0.00 in0.0 mm 0.71 in18.0 mm
10:23 PM 56.2°F13.4°C 53.9°F12.2°C 96% 4.0 mph S6.4 kmh S 10.0 mph16.1 kmh 29.85 in1010.8 mb 0.00 in0.0 mm 0.00 in0.0 mm 0.71 in18.0 mm
10:25 PM 56.2°F13.4°C 53.9°F12.2°C 96% 3.0 mph SSW4.8 kmh SSW 10.0 mph16.1 kmh 29.85 in1010.8 mb 0.00 in0.0 mm 0.00 in0.0 mm 0.71 in18.0 mm
10:27 PM 56.2°F13.4°C 53.9°F12.2°C 96% 4.0 mph SE6.4 kmh SE 10.0 mph16.1 kmh 29.85 in1010.8 mb 0.00 in0.0 mm 0.00 in0.0 mm 0.71 in18.0 mm
10:29 PM 56.3°F13.5°C 54.0°F12.2°C 96% 1.0 mph SW1.6 kmh SW 10.0 mph16.1 kmh 29.85 in1010.8 mb 0.00 in0.0 mm 0.00 in0.0 mm 0.71 in18.0 mm
10:31 PM 56.3°F13.5°C 54.0°F12.2°C 96% 2.0 mph S3.2 kmh S 9.0 mph14.5 kmh 29.85 in1010.8 mb 0.00 in0.0 mm 0.00 in0.0 mm 0.71 in18.0 mm
10:33 PM 56.3°F13.5°C 54.0°F12.2°C 96% 2.0 mph S3.2 kmh S 13.0 mph20.9 kmh 29.85 in1010.8 mb 0.00 in0.0 mm 0.00 in0.0 mm 0.71 in18.0 mm
10:35 PM 56.3°F13.5°C 54.0°F12.2°C 96% 2.0 mph SSE3.2 kmh SSE 13.0 mph20.9 kmh 29.85 in1010.8 mb 0.00 in0.0 mm 0.00 in0.0 mm 0.71 in18.0 mm
10:37 PM 56.3°F13.5°C 54.0°F12.2°C 96% 3.0 mph SSW4.8 kmh SSW 13.0 mph20.9 kmh 29.85 in1010.8 mb 0.00 in0.0 mm 0.00 in0.0 mm 0.71 in18.0 mm
10:39 PM 56.3°F13.5°C 54.0°F12.2°C 96% 2.0 mph S3.2 kmh S 13.0 mph20.9 kmh 29.85 in1010.8 mb 0.00 in0.0 mm 0.00 in0.0 mm 0.71 in18.0 mm
10:41 PM 56.3°F13.5°C 54.0°F12.2°C 96% 2.0 mph WSW3.2 kmh WSW 13.0 mph20.9 kmh 29.85 in1010.8 mb 0.00 in0.0 mm 0.00 in0.0 mm 0.71 in18.0 mm
10:43 PM 56.3°F13.5°C 54.0°F12.2°C 96% 3.0 mph W4.8 kmh W 13.0 mph20.9 kmh 29.85 in1010.8 mb 0.00 in0.0 mm 0.00 in0.0 mm 0.71 in18.0 mm
10:45 PM 56.3°F13.5°C 54.0°F12.2°C 96% 3.0 mph W4.8 kmh W 13.0 mph20.9 kmh 29.85 in1010.8 mb 0.00 in0.0 mm 0.00 in0.0 mm 0.71 in18.0 mm
10:47 PM 56.1°F13.4°C 53.8°F12.1°C 96% 1.0 mph W1.6 kmh W 13.0 mph20.9 kmh 29.86 in1011.2 mb 0.00 in0.0 mm 0.00 in0.0 mm 0.71 in18.0 mm
10:49 PM 56.0°F13.3°C 53.7°F12.1°C 96% 1.0 mph WNW1.6 kmh WNW 13.0 mph20.9 kmh 29.86 in1011.2 mb 0.00 in0.0 mm 0.00 in0.0 mm 0.71 in18.0 mm
10:51 PM 56.0°F13.3°C 53.7°F12.1°C 96% 1.0 mph W1.6 kmh W 13.0 mph20.9 kmh 29.85 in1010.8 mb 0.00 in0.0 mm 0.00 in0.0 mm 0.71 in18.0 mm
10:53 PM 56.0°F13.3°C 53.7°F12.1°C 96% Calm Calm 7.0 mph11.3 kmh 29.85 in1010.8 mb 0.00 in0.0 mm 0.00 in0.0 mm 0.71 in18.0 mm
10:55 PM 56.0°F13.3°C 53.7°F12.1°C 96% 1.0 mph WSW1.6 kmh WSW 7.0 mph11.3 kmh 29.85 in1010.8 mb 0.00 in0.0 mm 0.00 in0.0 mm 0.71 in18.0 mm
10:57 PM 56.0°F13.3°C 53.7°F12.1°C 96% 1.0 mph SW1.6 kmh SW 7.0 mph11.3 kmh 29.85 in1010.8 mb 0.00 in0.0 mm 0.00 in0.0 mm 0.71 in18.0 mm
10:59 PM 56.0°F13.3°C 53.7°F12.1°C 96% 1.0 mph SW1.6 kmh SW 7.0 mph11.3 kmh 29.85 in1010.8 mb 0.00 in0.0 mm 0.00 in0.0 mm 0.71 in18.0 mm
11:01 PM 56.0°F13.3°C 53.7°F12.1°C 96% 1.0 mph S1.6 kmh S 7.0 mph11.3 kmh 29.85 in1010.8 mb 0.00 in0.0 mm 0.00 in0.0 mm 0.71 in18.0 mm
11:03 PM 56.0°F13.3°C 53.7°F12.1°C 96% Calm Calm 4.0 mph6.4 kmh 29.85 in1010.8 mb 0.00 in0.0 mm 0.00 in0.0 mm 0.71 in18.0 mm
11:05 PM 55.9°F13.3°C 53.6°F12.0°C 96% 1.0 mph S1.6 kmh S 2.0 mph3.2 kmh 29.84 in1010.5 mb 0.00 in0.0 mm 0.00 in0.0 mm 0.71 in18.0 mm
11:07 PM 56.0°F13.3°C 53.7°F12.1°C 96% Calm Calm 3.0 mph4.8 kmh 29.84 in1010.5 mb 0.00 in0.0 mm 0.00 in0.0 mm 0.71 in18.0 mm
11:09 PM 56.0°F13.3°C 53.7°F12.1°C 96% 2.0 mph WNW3.2 kmh WNW 3.0 mph4.8 kmh 29.84 in1010.5 mb 0.00 in0.0 mm 0.00 in0.0 mm 0.71 in18.0 mm
11:11 PM 56.0°F13.3°C 53.7°F12.1°C 96% Calm Calm 3.0 mph4.8 kmh 29.84 in1010.5 mb 0.00 in0.0 mm 0.00 in0.0 mm 0.71 in18.0 mm
11:13 PM 56.0°F13.3°C 53.7°F12.1°C 96% 2.0 mph S3.2 kmh S 3.0 mph4.8 kmh 29.84 in1010.5 mb 0.00 in0.0 mm 0.00 in0.0 mm 0.71 in18.0 mm
11:15 PM 56.0°F13.3°C 53.7°F12.1°C 96% 2.0 mph SW3.2 kmh SW 10.0 mph16.1 kmh 29.84 in1010.5 mb 0.00 in0.0 mm 0.00 in0.0 mm 0.71 in18.0 mm
11:17 PM 56.1°F13.4°C 53.8°F12.1°C 96% 1.0 mph WSW1.6 kmh WSW 10.0 mph16.1 kmh 29.84 in1010.5 mb 0.00 in0.0 mm 0.00 in0.0 mm 0.71 in18.0 mm
11:19 PM 56.1°F13.4°C 53.8°F12.1°C 96% Calm Calm 10.0 mph16.1 kmh 29.84 in1010.5 mb 0.00 in0.0 mm 0.00 in0.0 mm 0.71 in18.0 mm
11:21 PM 56.1°F13.4°C 53.8°F12.1°C 96% 1.0 mph WSW1.6 kmh WSW 10.0 mph16.1 kmh 29.84 in1010.5 mb 0.00 in0.0 mm 0.00 in0.0 mm 0.71 in18.0 mm
11:23 PM 56.2°F13.4°C 53.9°F12.2°C 96% 3.0 mph S4.8 kmh S 10.0 mph16.1 kmh 29.84 in1010.5 mb 0.00 in0.0 mm 0.00 in0.0 mm 0.71 in18.0 mm
11:25 PM 56.2°F13.4°C 53.9°F12.2°C 96% Calm Calm 10.0 mph16.1 kmh 29.84 in1010.5 mb 0.00 in0.0 mm 0.00 in0.0 mm 0.71 in18.0 mm
11:27 PM 56.2°F13.4°C 53.9°F12.2°C 96% Calm Calm 10.0 mph16.1 kmh 29.84 in1010.5 mb 0.00 in0.0 mm 0.00 in0.0 mm 0.71 in18.0 mm
11:29 PM 56.1°F13.4°C 53.8°F12.1°C 96% Calm Calm 10.0 mph16.1 kmh 29.83 in1010.2 mb 0.00 in0.0 mm 0.00 in0.0 mm 0.71 in18.0 mm
11:31 PM 56.1°F13.4°C 53.8°F12.1°C 96% 3.0 mph S4.8 kmh S 10.0 mph16.1 kmh 29.83 in1010.2 mb 0.00 in0.0 mm 0.00 in0.0 mm 0.71 in18.0 mm
11:33 PM 56.1°F13.4°C 53.8°F12.1°C 96% Calm Calm 10.0 mph16.1 kmh 29.83 in1010.2 mb 0.00 in0.0 mm 0.00 in0.0 mm 0.71 in18.0 mm
11:35 PM 56.1°F13.4°C 53.8°F12.1°C 96% 1.0 mph SW1.6 kmh SW 5.0 mph8.0 kmh 29.83 in1010.2 mb 0.00 in0.0 mm 0.00 in0.0 mm 0.71 in18.0 mm
11:37 PM 56.0°F13.3°C 53.7°F12.1°C 96% Calm Calm 5.0 mph8.0 kmh 29.83 in1010.2 mb 0.00 in0.0 mm 0.00 in0.0 mm 0.71 in18.0 mm
11:39 PM 56.0°F13.3°C 53.7°F12.1°C 96% 4.0 mph SW6.4 kmh SW 5.0 mph8.0 kmh 29.83 in1010.2 mb 0.00 in0.0 mm 0.00 in0.0 mm 0.71 in18.0 mm
11:41 PM 56.0°F13.3°C 53.7°F12.1°C 96% Calm Calm 5.0 mph8.0 kmh 29.83 in1010.2 mb 0.00 in0.0 mm 0.00 in0.0 mm 0.71 in18.0 mm
11:43 PM 56.1°F13.4°C 53.8°F12.1°C 96% 3.0 mph WSW4.8 kmh WSW 5.0 mph8.0 kmh 29.83 in1010.2 mb 0.00 in0.0 mm 0.00 in0.0 mm 0.71 in18.0 mm
11:45 PM 56.2°F13.4°C 53.9°F12.2°C 96% 5.0 mph SW8.0 kmh SW 6.0 mph9.7 kmh 29.83 in1010.2 mb 0.00 in0.0 mm 0.00 in0.0 mm 0.71 in18.0 mm
11:47 PM 56.2°F13.4°C 53.9°F12.2°C 96% 6.0 mph SSW9.7 kmh SSW 6.0 mph9.7 kmh 29.82 in1009.8 mb 0.00 in0.0 mm 0.00 in0.0 mm 0.71 in18.0 mm
11:49 PM 56.2°F13.4°C 53.9°F12.2°C 96% 1.0 mph S1.6 kmh S 6.0 mph9.7 kmh 29.82 in1009.8 mb 0.00 in0.0 mm 0.00 in0.0 mm 0.71 in18.0 mm
11:51 PM 56.3°F13.5°C 54.0°F12.2°C 96% 1.0 mph SW1.6 kmh SW 6.0 mph9.7 kmh 29.82 in1009.8 mb 0.00 in0.0 mm 0.00 in0.0 mm 0.71 in18.0 mm
11:53 PM 56.3°F13.5°C 54.0°F12.2°C 96% 1.0 mph S1.6 kmh S 6.0 mph9.7 kmh 29.82 in1009.8 mb 0.00 in0.0 mm 0.00 in0.0 mm 0.71 in18.0 mm
11:55 PM 56.3°F13.5°C 54.0°F12.2°C 96% 1.0 mph WSW1.6 kmh WSW 8.0 mph12.9 kmh 29.82 in1009.8 mb 0.00 in0.0 mm 0.00 in0.0 mm 0.72 in18.3 mm
11:57 PM 56.3°F13.5°C 54.0°F12.2°C 96% 2.0 mph SW3.2 kmh SW 8.0 mph12.9 kmh 29.82 in1009.8 mb 0.00 in0.0 mm 0.00 in0.0 mm 0.72 in18.3 mm
11:59 PM 56.3°F13.5°C 54.0°F12.2°C 96% 7.0 mph SSW11.3 kmh SSW 8.0 mph12.9 kmh 29.82 in1009.8 mb 0.00 in0.0 mm 0.00 in0.0 mm 0.72 in18.3 mm